<?xml version="1.0" encoding="UTF-8" standalone="no" ?>
<gpx xmlns="http://www.topografix.com/GPX/1/1" xmlns:xsi="http://www.w3.org/2001/XMLSchema-instance" xsi:schemaLocation="http://www.topografix.com/GPX/1/1 http://www.topografix.com/GPX/1/1/gpx.xsd" version="1.1" creator="VisuGPX - https://www.visugpx.com">
  <metadata>
    <name>Tour de Roscoff</name>
    <desc><![CDATA[
Une randonnée en lasso au départ de la plage Sainte-Anne à Saint-Pol-de-Léon, randonnée en bord de mer jusqu'à la plage du Laber à Roscoff.
Retour au point de départ par les terres puis le bord de mer.]]></desc>
  </metadata>
  <wpt lat="48.71703" lon="-3.99178">
    <ele>1</ele>
    <name><![CDATA[2]]></name>
  </wpt>
  <trk>
    <name><![CDATA[Randonnée du 14/07/2019 à 12:05]]></name>
    <trkseg>
      <trkpt lat="48.68286" lon="-3.97061">
        <ele>4.8</ele>
        <time>2019-07-14T12:05:06 02:00</time>
      </trkpt>
      <trkpt lat="48.68309" lon="-3.97062">
        <ele>4.5</ele>
        <time>2019-07-14T12:05:31 02:00</time>
      </trkpt>
      <trkpt lat="48.68333" lon="-3.97066">
        <ele>4.3</ele>
        <time>2019-07-14T12:05:53 02:00</time>
      </trkpt>
      <trkpt lat="48.68355" lon="-3.97066">
        <ele>5.2</ele>
        <time>2019-07-14T12:06:15 02:00</time>
      </trkpt>
      <trkpt lat="48.68379" lon="-3.9707">
        <ele>6.2</ele>
        <time>2019-07-14T12:06:33 02:00</time>
      </trkpt>
      <trkpt lat="48.68402" lon="-3.97066">
        <ele>7</ele>
        <time>2019-07-14T12:06:52 02:00</time>
      </trkpt>
      <trkpt lat="48.68425" lon="-3.9707">
        <ele>7.7</ele>
        <time>2019-07-14T12:07:12 02:00</time>
      </trkpt>
      <trkpt lat="48.68448" lon="-3.97079">
        <ele>7.8</ele>
        <time>2019-07-14T12:07:31 02:00</time>
      </trkpt>
      <trkpt lat="48.68471" lon="-3.97079">
        <ele>8.1</ele>
        <time>2019-07-14T12:08:31 02:00</time>
      </trkpt>
      <trkpt lat="48.68494" lon="-3.97076">
        <ele>9.1</ele>
        <time>2019-07-14T12:08:49 02:00</time>
      </trkpt>
      <trkpt lat="48.68517" lon="-3.97071">
        <ele>8.4</ele>
        <time>2019-07-14T12:09:05 02:00</time>
      </trkpt>
      <trkpt lat="48.6854" lon="-3.97069">
        <ele>7.7</ele>
        <time>2019-07-14T12:09:18 02:00</time>
      </trkpt>
      <trkpt lat="48.68562" lon="-3.97063">
        <ele>7.6</ele>
        <time>2019-07-14T12:09:35 02:00</time>
      </trkpt>
      <trkpt lat="48.68585" lon="-3.97058">
        <ele>8.5</ele>
        <time>2019-07-14T12:09:53 02:00</time>
      </trkpt>
      <trkpt lat="48.68608" lon="-3.97054">
        <ele>8.7</ele>
        <time>2019-07-14T12:10:11 02:00</time>
      </trkpt>
      <trkpt lat="48.68631" lon="-3.97046">
        <ele>9.1</ele>
        <time>2019-07-14T12:10:28 02:00</time>
      </trkpt>
      <trkpt lat="48.68653" lon="-3.97038">
        <ele>9.3</ele>
        <time>2019-07-14T12:10:45 02:00</time>
      </trkpt>
      <trkpt lat="48.68674" lon="-3.97023">
        <ele>7.9</ele>
        <time>2019-07-14T12:11:21 02:00</time>
      </trkpt>
      <trkpt lat="48.68696" lon="-3.97015">
        <ele>7.4</ele>
        <time>2019-07-14T12:12:16 02:00</time>
      </trkpt>
      <trkpt lat="48.68718" lon="-3.97001">
        <ele>6.6</ele>
        <time>2019-07-14T12:12:36 02:00</time>
      </trkpt>
      <trkpt lat="48.6874" lon="-3.96988">
        <ele>5</ele>
        <time>2019-07-14T12:12:55 02:00</time>
      </trkpt>
      <trkpt lat="48.6876" lon="-3.96971">
        <ele>4.8</ele>
        <time>2019-07-14T12:13:14 02:00</time>
      </trkpt>
      <trkpt lat="48.6878" lon="-3.96955">
        <ele>4.7</ele>
        <time>2019-07-14T12:13:35 02:00</time>
      </trkpt>
      <trkpt lat="48.68802" lon="-3.9694">
        <ele>4.5</ele>
        <time>2019-07-14T12:13:55 02:00</time>
      </trkpt>
      <trkpt lat="48.68821" lon="-3.96922">
        <ele>4.2</ele>
        <time>2019-07-14T12:14:15 02:00</time>
      </trkpt>
      <trkpt lat="48.68843" lon="-3.96914">
        <ele>4.2</ele>
        <time>2019-07-14T12:14:33 02:00</time>
      </trkpt>
      <trkpt lat="48.68865" lon="-3.96904">
        <ele>4.5</ele>
        <time>2019-07-14T12:14:51 02:00</time>
      </trkpt>
      <trkpt lat="48.68888" lon="-3.96895">
        <ele>4.7</ele>
        <time>2019-07-14T12:15:09 02:00</time>
      </trkpt>
      <trkpt lat="48.68909" lon="-3.96884">
        <ele>4.8</ele>
        <time>2019-07-14T12:15:26 02:00</time>
      </trkpt>
      <trkpt lat="48.68932" lon="-3.96876">
        <ele>5</ele>
        <time>2019-07-14T12:15:45 02:00</time>
      </trkpt>
      <trkpt lat="48.68954" lon="-3.96868">
        <ele>5</ele>
        <time>2019-07-14T12:16:04 02:00</time>
      </trkpt>
      <trkpt lat="48.68976" lon="-3.96858">
        <ele>5</ele>
        <time>2019-07-14T12:16:26 02:00</time>
      </trkpt>
      <trkpt lat="48.68996" lon="-3.96839">
        <ele>5</ele>
        <time>2019-07-14T12:16:44 02:00</time>
      </trkpt>
      <trkpt lat="48.69014" lon="-3.96818">
        <ele>5.2</ele>
        <time>2019-07-14T12:17:02 02:00</time>
      </trkpt>
      <trkpt lat="48.6903" lon="-3.96794">
        <ele>5.3</ele>
        <time>2019-07-14T12:17:34 02:00</time>
      </trkpt>
      <trkpt lat="48.69051" lon="-3.96781">
        <ele>5.2</ele>
        <time>2019-07-14T12:17:50 02:00</time>
      </trkpt>
      <trkpt lat="48.69074" lon="-3.96788">
        <ele>5.2</ele>
        <time>2019-07-14T12:18:13 02:00</time>
      </trkpt>
      <trkpt lat="48.69091" lon="-3.96812">
        <ele>5.4</ele>
        <time>2019-07-14T12:18:33 02:00</time>
      </trkpt>
      <trkpt lat="48.6911" lon="-3.96833">
        <ele>5.4</ele>
        <time>2019-07-14T12:18:53 02:00</time>
      </trkpt>
      <trkpt lat="48.69132" lon="-3.96823">
        <ele>5.5</ele>
        <time>2019-07-14T12:19:11 02:00</time>
      </trkpt>
      <trkpt lat="48.69153" lon="-3.9681">
        <ele>5.6</ele>
        <time>2019-07-14T12:19:29 02:00</time>
      </trkpt>
      <trkpt lat="48.69175" lon="-3.96796">
        <ele>6.4</ele>
        <time>2019-07-14T12:19:46 02:00</time>
      </trkpt>
      <trkpt lat="48.69197" lon="-3.96783">
        <ele>6.6</ele>
        <time>2019-07-14T12:20:07 02:00</time>
      </trkpt>
      <trkpt lat="48.69219" lon="-3.96774">
        <ele>6.7</ele>
        <time>2019-07-14T12:20:25 02:00</time>
      </trkpt>
      <trkpt lat="48.69241" lon="-3.96763">
        <ele>6.8</ele>
        <time>2019-07-14T12:20:44 02:00</time>
      </trkpt>
      <trkpt lat="48.69264" lon="-3.96757">
        <ele>6.4</ele>
        <time>2019-07-14T12:21:02 02:00</time>
      </trkpt>
      <trkpt lat="48.69287" lon="-3.96763">
        <ele>5.8</ele>
        <time>2019-07-14T12:21:20 02:00</time>
      </trkpt>
      <trkpt lat="48.69307" lon="-3.96779">
        <ele>5.2</ele>
        <time>2019-07-14T12:21:41 02:00</time>
      </trkpt>
      <trkpt lat="48.69318" lon="-3.96811">
        <ele>4.4</ele>
        <time>2019-07-14T12:22:33 02:00</time>
      </trkpt>
      <trkpt lat="48.69329" lon="-3.9684">
        <ele>3.2</ele>
        <time>2019-07-14T12:22:51 02:00</time>
      </trkpt>
      <trkpt lat="48.69339" lon="-3.96873">
        <ele>3</ele>
        <time>2019-07-14T12:23:08 02:00</time>
      </trkpt>
      <trkpt lat="48.69352" lon="-3.96903">
        <ele>3</ele>
        <time>2019-07-14T12:23:35 02:00</time>
      </trkpt>
      <trkpt lat="48.69364" lon="-3.96935">
        <ele>3.7</ele>
        <time>2019-07-14T12:23:54 02:00</time>
      </trkpt>
      <trkpt lat="48.69379" lon="-3.9696">
        <ele>4</ele>
        <time>2019-07-14T12:24:11 02:00</time>
      </trkpt>
      <trkpt lat="48.69388" lon="-3.96993">
        <ele>4.3</ele>
        <time>2019-07-14T12:24:34 02:00</time>
      </trkpt>
      <trkpt lat="48.69404" lon="-3.97017">
        <ele>4.9</ele>
        <time>2019-07-14T12:24:49 02:00</time>
      </trkpt>
      <trkpt lat="48.6942" lon="-3.97041">
        <ele>4</ele>
        <time>2019-07-14T12:25:07 02:00</time>
      </trkpt>
      <trkpt lat="48.69437" lon="-3.97066">
        <ele>4</ele>
        <time>2019-07-14T12:25:23 02:00</time>
      </trkpt>
      <trkpt lat="48.69452" lon="-3.97092">
        <ele>5</ele>
        <time>2019-07-14T12:25:43 02:00</time>
      </trkpt>
      <trkpt lat="48.69468" lon="-3.97118">
        <ele>5.2</ele>
        <time>2019-07-14T12:26:01 02:00</time>
      </trkpt>
      <trkpt lat="48.6948" lon="-3.97147">
        <ele>5</ele>
        <time>2019-07-14T12:26:31 02:00</time>
      </trkpt>
      <trkpt lat="48.69503" lon="-3.9714">
        <ele>4</ele>
        <time>2019-07-14T12:27:09 02:00</time>
      </trkpt>
      <trkpt lat="48.69523" lon="-3.97158">
        <ele>4</ele>
        <time>2019-07-14T12:27:29 02:00</time>
      </trkpt>
      <trkpt lat="48.69542" lon="-3.97178">
        <ele>5.5</ele>
        <time>2019-07-14T12:27:45 02:00</time>
      </trkpt>
      <trkpt lat="48.6956" lon="-3.97201">
        <ele>5.7</ele>
        <time>2019-07-14T12:28:05 02:00</time>
      </trkpt>
      <trkpt lat="48.69579" lon="-3.97223">
        <ele>5.2</ele>
        <time>2019-07-14T12:28:25 02:00</time>
      </trkpt>
      <trkpt lat="48.69595" lon="-3.97247">
        <ele>4</ele>
        <time>2019-07-14T12:28:44 02:00</time>
      </trkpt>
      <trkpt lat="48.69608" lon="-3.97277">
        <ele>5.7</ele>
        <time>2019-07-14T12:29:04 02:00</time>
      </trkpt>
      <trkpt lat="48.69628" lon="-3.97296">
        <ele>6</ele>
        <time>2019-07-14T12:29:23 02:00</time>
      </trkpt>
      <trkpt lat="48.69647" lon="-3.97316">
        <ele>5.4</ele>
        <time>2019-07-14T12:29:44 02:00</time>
      </trkpt>
      <trkpt lat="48.69665" lon="-3.97337">
        <ele>4.8</ele>
        <time>2019-07-14T12:30:05 02:00</time>
      </trkpt>
      <trkpt lat="48.69686" lon="-3.97351">
        <ele>4.6</ele>
        <time>2019-07-14T12:30:23 02:00</time>
      </trkpt>
      <trkpt lat="48.69705" lon="-3.97372">
        <ele>5</ele>
        <time>2019-07-14T12:30:47 02:00</time>
      </trkpt>
      <trkpt lat="48.69727" lon="-3.97368">
        <ele>4.9</ele>
        <time>2019-07-14T12:31:10 02:00</time>
      </trkpt>
      <trkpt lat="48.69748" lon="-3.9735">
        <ele>4.9</ele>
        <time>2019-07-14T12:31:30 02:00</time>
      </trkpt>
      <trkpt lat="48.69761" lon="-3.97379">
        <ele>1</ele>
        <time>2019-07-14T12:33:43 02:00</time>
      </trkpt>
      <trkpt lat="48.69774" lon="-3.97407">
        <ele>1.1</ele>
        <time>2019-07-14T12:34:04 02:00</time>
      </trkpt>
      <trkpt lat="48.69789" lon="-3.97432">
        <ele>1</ele>
        <time>2019-07-14T12:34:23 02:00</time>
      </trkpt>
      <trkpt lat="48.69798" lon="-3.97463">
        <ele>1</ele>
        <time>2019-07-14T12:34:48 02:00</time>
      </trkpt>
      <trkpt lat="48.6981" lon="-3.97492">
        <ele>1</ele>
        <time>2019-07-14T12:35:17 02:00</time>
      </trkpt>
      <trkpt lat="48.69828" lon="-3.97513">
        <ele>2.2</ele>
        <time>2019-07-14T12:35:39 02:00</time>
      </trkpt>
      <trkpt lat="48.69848" lon="-3.97531">
        <ele>3.5</ele>
        <time>2019-07-14T12:36:02 02:00</time>
      </trkpt>
      <trkpt lat="48.69869" lon="-3.97546">
        <ele>3.8</ele>
        <time>2019-07-14T12:36:22 02:00</time>
      </trkpt>
      <trkpt lat="48.69888" lon="-3.97565">
        <ele>4.5</ele>
        <time>2019-07-14T12:36:40 02:00</time>
      </trkpt>
      <trkpt lat="48.6991" lon="-3.97578">
        <ele>5.6</ele>
        <time>2019-07-14T12:36:59 02:00</time>
      </trkpt>
      <trkpt lat="48.6993" lon="-3.97596">
        <ele>7.7</ele>
        <time>2019-07-14T12:37:18 02:00</time>
      </trkpt>
      <trkpt lat="48.69948" lon="-3.97617">
        <ele>9</ele>
        <time>2019-07-14T12:37:38 02:00</time>
      </trkpt>
      <trkpt lat="48.6997" lon="-3.97627">
        <ele>9.9</ele>
        <time>2019-07-14T12:38:06 02:00</time>
      </trkpt>
      <trkpt lat="48.69993" lon="-3.9763">
        <ele>10.8</ele>
        <time>2019-07-14T12:38:30 02:00</time>
      </trkpt>
      <trkpt lat="48.70014" lon="-3.97617">
        <ele>15.3</ele>
        <time>2019-07-14T12:38:55 02:00</time>
      </trkpt>
      <trkpt lat="48.70027" lon="-3.97589">
        <ele>14</ele>
        <time>2019-07-14T12:39:14 02:00</time>
      </trkpt>
      <trkpt lat="48.70047" lon="-3.97572">
        <ele>9.7</ele>
        <time>2019-07-14T12:39:34 02:00</time>
      </trkpt>
      <trkpt lat="48.70069" lon="-3.97565">
        <ele>11.4</ele>
        <time>2019-07-14T12:39:55 02:00</time>
      </trkpt>
      <trkpt lat="48.70093" lon="-3.97565">
        <ele>16.4</ele>
        <time>2019-07-14T12:40:13 02:00</time>
      </trkpt>
      <trkpt lat="48.70115" lon="-3.97557">
        <ele>16.8</ele>
        <time>2019-07-14T12:40:38 02:00</time>
      </trkpt>
      <trkpt lat="48.70138" lon="-3.97556">
        <ele>18.2</ele>
        <time>2019-07-14T12:40:57 02:00</time>
      </trkpt>
      <trkpt lat="48.70161" lon="-3.97549">
        <ele>18.9</ele>
        <time>2019-07-14T12:41:18 02:00</time>
      </trkpt>
      <trkpt lat="48.70183" lon="-3.97552">
        <ele>24.3</ele>
        <time>2019-07-14T12:41:42 02:00</time>
      </trkpt>
      <trkpt lat="48.70206" lon="-3.97561">
        <ele>25.2</ele>
        <time>2019-07-14T12:42:02 02:00</time>
      </trkpt>
      <trkpt lat="48.70229" lon="-3.97565">
        <ele>26.4</ele>
        <time>2019-07-14T12:42:23 02:00</time>
      </trkpt>
      <trkpt lat="48.70251" lon="-3.97569">
        <ele>29.5</ele>
        <time>2019-07-14T12:42:43 02:00</time>
      </trkpt>
      <trkpt lat="48.70274" lon="-3.9757">
        <ele>29.4</ele>
        <time>2019-07-14T12:43:05 02:00</time>
      </trkpt>
      <trkpt lat="48.70295" lon="-3.97582">
        <ele>29.8</ele>
        <time>2019-07-14T12:43:58 02:00</time>
      </trkpt>
      <trkpt lat="48.70317" lon="-3.9759">
        <ele>31.7</ele>
        <time>2019-07-14T12:44:13 02:00</time>
      </trkpt>
      <trkpt lat="48.70338" lon="-3.97604">
        <ele>31.8</ele>
        <time>2019-07-14T12:44:32 02:00</time>
      </trkpt>
      <trkpt lat="48.70361" lon="-3.97605">
        <ele>31.7</ele>
        <time>2019-07-14T12:44:53 02:00</time>
      </trkpt>
      <trkpt lat="48.70382" lon="-3.9762">
        <ele>31.7</ele>
        <time>2019-07-14T12:45:11 02:00</time>
      </trkpt>
      <trkpt lat="48.70397" lon="-3.97647">
        <ele>32.1</ele>
        <time>2019-07-14T12:45:30 02:00</time>
      </trkpt>
      <trkpt lat="48.7042" lon="-3.97653">
        <ele>32.4</ele>
        <time>2019-07-14T12:45:58 02:00</time>
      </trkpt>
      <trkpt lat="48.70443" lon="-3.9765">
        <ele>32.1</ele>
        <time>2019-07-14T12:46:18 02:00</time>
      </trkpt>
      <trkpt lat="48.70466" lon="-3.97652">
        <ele>32.1</ele>
        <time>2019-07-14T12:46:33 02:00</time>
      </trkpt>
      <trkpt lat="48.70488" lon="-3.97643">
        <ele>32.2</ele>
        <time>2019-07-14T12:46:50 02:00</time>
      </trkpt>
      <trkpt lat="48.7051" lon="-3.97632">
        <ele>27.6</ele>
        <time>2019-07-14T12:47:07 02:00</time>
      </trkpt>
      <trkpt lat="48.70529" lon="-3.9761">
        <ele>26.3</ele>
        <time>2019-07-14T12:47:28 02:00</time>
      </trkpt>
      <trkpt lat="48.70544" lon="-3.97583">
        <ele>23.7</ele>
        <time>2019-07-14T12:47:51 02:00</time>
      </trkpt>
      <trkpt lat="48.70552" lon="-3.97548">
        <ele>22.8</ele>
        <time>2019-07-14T12:48:11 02:00</time>
      </trkpt>
      <trkpt lat="48.70557" lon="-3.97515">
        <ele>21.7</ele>
        <time>2019-07-14T12:48:27 02:00</time>
      </trkpt>
      <trkpt lat="48.70561" lon="-3.97479">
        <ele>19.2</ele>
        <time>2019-07-14T12:48:45 02:00</time>
      </trkpt>
      <trkpt lat="48.70569" lon="-3.97446">
        <ele>18.4</ele>
        <time>2019-07-14T12:49:03 02:00</time>
      </trkpt>
      <trkpt lat="48.70587" lon="-3.97423">
        <ele>15.1</ele>
        <time>2019-07-14T12:49:28 02:00</time>
      </trkpt>
      <trkpt lat="48.70606" lon="-3.97401">
        <ele>12.1</ele>
        <time>2019-07-14T12:49:51 02:00</time>
      </trkpt>
      <trkpt lat="48.70624" lon="-3.97377">
        <ele>10.6</ele>
        <time>2019-07-14T12:50:07 02:00</time>
      </trkpt>
      <trkpt lat="48.70643" lon="-3.97356">
        <ele>9.5</ele>
        <time>2019-07-14T12:50:26 02:00</time>
      </trkpt>
      <trkpt lat="48.70661" lon="-3.97337">
        <ele>7.8</ele>
        <time>2019-07-14T12:50:46 02:00</time>
      </trkpt>
      <trkpt lat="48.70679" lon="-3.97315">
        <ele>5.5</ele>
        <time>2019-07-14T12:51:08 02:00</time>
      </trkpt>
      <trkpt lat="48.707" lon="-3.97328">
        <ele>4.8</ele>
        <time>2019-07-14T12:51:25 02:00</time>
      </trkpt>
      <trkpt lat="48.70719" lon="-3.97346">
        <ele>4.4</ele>
        <time>2019-07-14T12:51:43 02:00</time>
      </trkpt>
      <trkpt lat="48.70739" lon="-3.97362">
        <ele>4.1</ele>
        <time>2019-07-14T12:52:02 02:00</time>
      </trkpt>
      <trkpt lat="48.70762" lon="-3.97375">
        <ele>3.4</ele>
        <time>2019-07-14T12:52:20 02:00</time>
      </trkpt>
      <trkpt lat="48.70785" lon="-3.9738">
        <ele>3.7</ele>
        <time>2019-07-14T12:52:41 02:00</time>
      </trkpt>
      <trkpt lat="48.70807" lon="-3.97391">
        <ele>4</ele>
        <time>2019-07-14T12:52:59 02:00</time>
      </trkpt>
      <trkpt lat="48.70827" lon="-3.97407">
        <ele>4.6</ele>
        <time>2019-07-14T12:53:49 02:00</time>
      </trkpt>
      <trkpt lat="48.70833" lon="-3.9744">
        <ele>5.9</ele>
        <time>2019-07-14T12:54:05 02:00</time>
      </trkpt>
      <trkpt lat="48.70831" lon="-3.97474">
        <ele>7.1</ele>
        <time>2019-07-14T12:54:23 02:00</time>
      </trkpt>
      <trkpt lat="48.70833" lon="-3.97509">
        <ele>9.3</ele>
        <time>2019-07-14T12:54:41 02:00</time>
      </trkpt>
      <trkpt lat="48.70831" lon="-3.97542">
        <ele>10.4</ele>
        <time>2019-07-14T12:55:00 02:00</time>
      </trkpt>
      <trkpt lat="48.70837" lon="-3.97577">
        <ele>12.5</ele>
        <time>2019-07-14T12:55:26 02:00</time>
      </trkpt>
      <trkpt lat="48.70834" lon="-3.97611">
        <ele>14.6</ele>
        <time>2019-07-14T12:55:47 02:00</time>
      </trkpt>
      <trkpt lat="48.70853" lon="-3.9763">
        <ele>15.3</ele>
        <time>2019-07-14T12:57:08 02:00</time>
      </trkpt>
      <trkpt lat="48.70875" lon="-3.97644">
        <ele>15.7</ele>
        <time>2019-07-14T12:57:25 02:00</time>
      </trkpt>
      <trkpt lat="48.70896" lon="-3.97658">
        <ele>16.4</ele>
        <time>2019-07-14T12:57:42 02:00</time>
      </trkpt>
      <trkpt lat="48.70918" lon="-3.97665">
        <ele>18</ele>
        <time>2019-07-14T12:57:59 02:00</time>
      </trkpt>
      <trkpt lat="48.70941" lon="-3.97673">
        <ele>20.9</ele>
        <time>2019-07-14T12:58:18 02:00</time>
      </trkpt>
      <trkpt lat="48.70963" lon="-3.97676">
        <ele>22</ele>
        <time>2019-07-14T12:58:38 02:00</time>
      </trkpt>
      <trkpt lat="48.70986" lon="-3.97673">
        <ele>22.7</ele>
        <time>2019-07-14T12:59:00 02:00</time>
      </trkpt>
      <trkpt lat="48.71008" lon="-3.97663">
        <ele>23.3</ele>
        <time>2019-07-14T12:59:28 02:00</time>
      </trkpt>
      <trkpt lat="48.71027" lon="-3.97644">
        <ele>23.8</ele>
        <time>2019-07-14T12:59:46 02:00</time>
      </trkpt>
      <trkpt lat="48.71045" lon="-3.97622">
        <ele>24.1</ele>
        <time>2019-07-14T13:00:03 02:00</time>
      </trkpt>
      <trkpt lat="48.71066" lon="-3.97598">
        <ele>24.7</ele>
        <time>2019-07-14T13:00:38 02:00</time>
      </trkpt>
      <trkpt lat="48.71083" lon="-3.97574">
        <ele>24.4</ele>
        <time>2019-07-14T13:00:55 02:00</time>
      </trkpt>
      <trkpt lat="48.71099" lon="-3.97546">
        <ele>25.1</ele>
        <time>2019-07-14T13:01:28 02:00</time>
      </trkpt>
      <trkpt lat="48.71104" lon="-3.97513">
        <ele>23.9</ele>
        <time>2019-07-14T13:02:18 02:00</time>
      </trkpt>
      <trkpt lat="48.71115" lon="-3.97482">
        <ele>21.1</ele>
        <time>2019-07-14T13:02:36 02:00</time>
      </trkpt>
      <trkpt lat="48.71122" lon="-3.97448">
        <ele>20.3</ele>
        <time>2019-07-14T13:02:54 02:00</time>
      </trkpt>
      <trkpt lat="48.71127" lon="-3.97415">
        <ele>16.2</ele>
        <time>2019-07-14T13:03:13 02:00</time>
      </trkpt>
      <trkpt lat="48.71142" lon="-3.97389">
        <ele>16.3</ele>
        <time>2019-07-14T13:03:34 02:00</time>
      </trkpt>
      <trkpt lat="48.71163" lon="-3.97375">
        <ele>16.3</ele>
        <time>2019-07-14T13:04:04 02:00</time>
      </trkpt>
      <trkpt lat="48.71186" lon="-3.97383">
        <ele>21.6</ele>
        <time>2019-07-14T13:04:21 02:00</time>
      </trkpt>
      <trkpt lat="48.71208" lon="-3.97392">
        <ele>22.7</ele>
        <time>2019-07-14T13:04:41 02:00</time>
      </trkpt>
      <trkpt lat="48.71229" lon="-3.97408">
        <ele>24.6</ele>
        <time>2019-07-14T13:05:05 02:00</time>
      </trkpt>
      <trkpt lat="48.7125" lon="-3.97418">
        <ele>27.9</ele>
        <time>2019-07-14T13:05:39 02:00</time>
      </trkpt>
      <trkpt lat="48.71257" lon="-3.97452">
        <ele>29</ele>
        <time>2019-07-14T13:06:24 02:00</time>
      </trkpt>
      <trkpt lat="48.71273" lon="-3.97477">
        <ele>29.5</ele>
        <time>2019-07-14T13:07:12 02:00</time>
      </trkpt>
      <trkpt lat="48.71296" lon="-3.97485">
        <ele>29.4</ele>
        <time>2019-07-14T13:12:29 02:00</time>
      </trkpt>
      <trkpt lat="48.71319" lon="-3.97487">
        <ele>29.5</ele>
        <time>2019-07-14T13:12:51 02:00</time>
      </trkpt>
      <trkpt lat="48.7134" lon="-3.97499">
        <ele>29.2</ele>
        <time>2019-07-14T13:13:10 02:00</time>
      </trkpt>
      <trkpt lat="48.71363" lon="-3.97496">
        <ele>27.6</ele>
        <time>2019-07-14T13:13:29 02:00</time>
      </trkpt>
      <trkpt lat="48.71385" lon="-3.97508">
        <ele>28.9</ele>
        <time>2019-07-14T13:13:50 02:00</time>
      </trkpt>
      <trkpt lat="48.71409" lon="-3.97507">
        <ele>27.9</ele>
        <time>2019-07-14T13:14:34 02:00</time>
      </trkpt>
      <trkpt lat="48.71413" lon="-3.97473">
        <ele>26.3</ele>
        <time>2019-07-14T13:14:56 02:00</time>
      </trkpt>
      <trkpt lat="48.71419" lon="-3.97439">
        <ele>22.9</ele>
        <time>2019-07-14T13:15:30 02:00</time>
      </trkpt>
      <trkpt lat="48.71427" lon="-3.97407">
        <ele>20.9</ele>
        <time>2019-07-14T13:16:04 02:00</time>
      </trkpt>
      <trkpt lat="48.71423" lon="-3.97372">
        <ele>19.4</ele>
        <time>2019-07-14T13:16:24 02:00</time>
      </trkpt>
      <trkpt lat="48.71428" lon="-3.97338">
        <ele>18</ele>
        <time>2019-07-14T13:16:45 02:00</time>
      </trkpt>
      <trkpt lat="48.71449" lon="-3.97322">
        <ele>16.5</ele>
        <time>2019-07-14T13:17:07 02:00</time>
      </trkpt>
      <trkpt lat="48.71468" lon="-3.97301">
        <ele>16.4</ele>
        <time>2019-07-14T13:17:24 02:00</time>
      </trkpt>
      <trkpt lat="48.71488" lon="-3.97281">
        <ele>16.2</ele>
        <time>2019-07-14T13:17:42 02:00</time>
      </trkpt>
      <trkpt lat="48.71507" lon="-3.97262">
        <ele>16.7</ele>
        <time>2019-07-14T13:18:16 02:00</time>
      </trkpt>
      <trkpt lat="48.71527" lon="-3.97245">
        <ele>15.7</ele>
        <time>2019-07-14T13:18:35 02:00</time>
      </trkpt>
      <trkpt lat="48.71548" lon="-3.9723">
        <ele>15.6</ele>
        <time>2019-07-14T13:19:03 02:00</time>
      </trkpt>
      <trkpt lat="48.71549" lon="-3.97193">
        <ele>15.5</ele>
        <time>2019-07-14T13:19:24 02:00</time>
      </trkpt>
      <trkpt lat="48.71553" lon="-3.97158">
        <ele>14.3</ele>
        <time>2019-07-14T13:19:38 02:00</time>
      </trkpt>
      <trkpt lat="48.71558" lon="-3.97125">
        <ele>13.9</ele>
        <time>2019-07-14T13:19:58 02:00</time>
      </trkpt>
      <trkpt lat="48.71546" lon="-3.97093">
        <ele>13.2</ele>
        <time>2019-07-14T13:21:52 02:00</time>
      </trkpt>
      <trkpt lat="48.71544" lon="-3.97058">
        <ele>9.7</ele>
        <time>2019-07-14T13:22:15 02:00</time>
      </trkpt>
      <trkpt lat="48.71523" lon="-3.97042">
        <ele>8.5</ele>
        <time>2019-07-14T13:22:45 02:00</time>
      </trkpt>
      <trkpt lat="48.71542" lon="-3.97063">
        <ele>9.7</ele>
        <time>2019-07-14T13:26:05 02:00</time>
      </trkpt>
      <trkpt lat="48.71544" lon="-3.97097">
        <ele>13.2</ele>
        <time>2019-07-14T13:26:23 02:00</time>
      </trkpt>
      <trkpt lat="48.71556" lon="-3.97128">
        <ele>13.9</ele>
        <time>2019-07-14T13:26:40 02:00</time>
      </trkpt>
      <trkpt lat="48.71554" lon="-3.97163">
        <ele>14.4</ele>
        <time>2019-07-14T13:26:59 02:00</time>
      </trkpt>
      <trkpt lat="48.71576" lon="-3.97173">
        <ele>15.8</ele>
        <time>2019-07-14T13:27:26 02:00</time>
      </trkpt>
      <trkpt lat="48.716" lon="-3.9717">
        <ele>16.6</ele>
        <time>2019-07-14T13:27:48 02:00</time>
      </trkpt>
      <trkpt lat="48.71621" lon="-3.97157">
        <ele>16.8</ele>
        <time>2019-07-14T13:28:22 02:00</time>
      </trkpt>
      <trkpt lat="48.71632" lon="-3.97125">
        <ele>16.9</ele>
        <time>2019-07-14T13:28:37 02:00</time>
      </trkpt>
      <trkpt lat="48.7164" lon="-3.97092">
        <ele>17</ele>
        <time>2019-07-14T13:28:57 02:00</time>
      </trkpt>
      <trkpt lat="48.7165" lon="-3.97061">
        <ele>15.4</ele>
        <time>2019-07-14T13:29:16 02:00</time>
      </trkpt>
      <trkpt lat="48.71656" lon="-3.97027">
        <ele>14.5</ele>
        <time>2019-07-14T13:29:35 02:00</time>
      </trkpt>
      <trkpt lat="48.71663" lon="-3.96995">
        <ele>13.7</ele>
        <time>2019-07-14T13:30:01 02:00</time>
      </trkpt>
      <trkpt lat="48.71672" lon="-3.96963">
        <ele>12.4</ele>
        <time>2019-07-14T13:30:29 02:00</time>
      </trkpt>
      <trkpt lat="48.71676" lon="-3.96929">
        <ele>10.5</ele>
        <time>2019-07-14T13:30:57 02:00</time>
      </trkpt>
      <trkpt lat="48.71692" lon="-3.96904">
        <ele>7.5</ele>
        <time>2019-07-14T13:31:24 02:00</time>
      </trkpt>
      <trkpt lat="48.71715" lon="-3.96898">
        <ele>7.3</ele>
        <time>2019-07-14T13:31:45 02:00</time>
      </trkpt>
      <trkpt lat="48.71738" lon="-3.96896">
        <ele>7.7</ele>
        <time>2019-07-14T13:32:14 02:00</time>
      </trkpt>
      <trkpt lat="48.71742" lon="-3.96863">
        <ele>5.8</ele>
        <time>2019-07-14T13:32:31 02:00</time>
      </trkpt>
      <trkpt lat="48.71741" lon="-3.96827">
        <ele>3.1</ele>
        <time>2019-07-14T13:33:11 02:00</time>
      </trkpt>
      <trkpt lat="48.7176" lon="-3.96845">
        <ele>4.5</ele>
        <time>2019-07-14T13:34:15 02:00</time>
      </trkpt>
      <trkpt lat="48.71783" lon="-3.9685">
        <ele>5.3</ele>
        <time>2019-07-14T13:34:35 02:00</time>
      </trkpt>
      <trkpt lat="48.71807" lon="-3.96856">
        <ele>5.4</ele>
        <time>2019-07-14T13:34:56 02:00</time>
      </trkpt>
      <trkpt lat="48.71831" lon="-3.9686">
        <ele>5.3</ele>
        <time>2019-07-14T13:35:12 02:00</time>
      </trkpt>
      <trkpt lat="48.71853" lon="-3.96865">
        <ele>5.8</ele>
        <time>2019-07-14T13:35:29 02:00</time>
      </trkpt>
      <trkpt lat="48.71866" lon="-3.96893">
        <ele>6.4</ele>
        <time>2019-07-14T13:35:59 02:00</time>
      </trkpt>
      <trkpt lat="48.71862" lon="-3.96928">
        <ele>8.9</ele>
        <time>2019-07-14T13:36:21 02:00</time>
      </trkpt>
      <trkpt lat="48.71864" lon="-3.96963">
        <ele>9.9</ele>
        <time>2019-07-14T13:36:39 02:00</time>
      </trkpt>
      <trkpt lat="48.7187" lon="-3.96996">
        <ele>10.6</ele>
        <time>2019-07-14T13:36:57 02:00</time>
      </trkpt>
      <trkpt lat="48.71891" lon="-3.96984">
        <ele>10.5</ele>
        <time>2019-07-14T13:37:31 02:00</time>
      </trkpt>
      <trkpt lat="48.71894" lon="-3.96951">
        <ele>9.6</ele>
        <time>2019-07-14T13:37:51 02:00</time>
      </trkpt>
      <trkpt lat="48.71909" lon="-3.96925">
        <ele>8.6</ele>
        <time>2019-07-14T13:38:12 02:00</time>
      </trkpt>
      <trkpt lat="48.71931" lon="-3.96918">
        <ele>8.8</ele>
        <time>2019-07-14T13:38:30 02:00</time>
      </trkpt>
      <trkpt lat="48.71954" lon="-3.96915">
        <ele>7.1</ele>
        <time>2019-07-14T13:38:49 02:00</time>
      </trkpt>
      <trkpt lat="48.71977" lon="-3.96909">
        <ele>6.9</ele>
        <time>2019-07-14T13:39:08 02:00</time>
      </trkpt>
      <trkpt lat="48.72001" lon="-3.96901">
        <ele>6.7</ele>
        <time>2019-07-14T13:39:27 02:00</time>
      </trkpt>
      <trkpt lat="48.72021" lon="-3.96884">
        <ele>6.4</ele>
        <time>2019-07-14T13:39:51 02:00</time>
      </trkpt>
      <trkpt lat="48.7204" lon="-3.96864">
        <ele>6.2</ele>
        <time>2019-07-14T13:40:11 02:00</time>
      </trkpt>
      <trkpt lat="48.72058" lon="-3.96845">
        <ele>5.8</ele>
        <time>2019-07-14T13:40:27 02:00</time>
      </trkpt>
      <trkpt lat="48.72073" lon="-3.96817">
        <ele>4.9</ele>
        <time>2019-07-14T13:41:00 02:00</time>
      </trkpt>
      <trkpt lat="48.72081" lon="-3.96784">
        <ele>4.6</ele>
        <time>2019-07-14T13:41:11 02:00</time>
      </trkpt>
      <trkpt lat="48.72087" lon="-3.9675">
        <ele>4.1</ele>
        <time>2019-07-14T13:41:30 02:00</time>
      </trkpt>
      <trkpt lat="48.721" lon="-3.96721">
        <ele>4.5</ele>
        <time>2019-07-14T13:41:50 02:00</time>
      </trkpt>
      <trkpt lat="48.72123" lon="-3.96713">
        <ele>4.8</ele>
        <time>2019-07-14T13:42:17 02:00</time>
      </trkpt>
      <trkpt lat="48.72146" lon="-3.9672">
        <ele>5.2</ele>
        <time>2019-07-14T13:42:37 02:00</time>
      </trkpt>
      <trkpt lat="48.72167" lon="-3.96737">
        <ele>6.2</ele>
        <time>2019-07-14T13:42:57 02:00</time>
      </trkpt>
      <trkpt lat="48.7219" lon="-3.96744">
        <ele>5.8</ele>
        <time>2019-07-14T13:43:18 02:00</time>
      </trkpt>
      <trkpt lat="48.72211" lon="-3.96757">
        <ele>7.8</ele>
        <time>2019-07-14T13:43:35 02:00</time>
      </trkpt>
      <trkpt lat="48.72226" lon="-3.9673">
        <ele>5</ele>
        <time>2019-07-14T13:43:54 02:00</time>
      </trkpt>
      <trkpt lat="48.72248" lon="-3.9674">
        <ele>5</ele>
        <time>2019-07-14T13:44:10 02:00</time>
      </trkpt>
      <trkpt lat="48.72262" lon="-3.96767">
        <ele>7</ele>
        <time>2019-07-14T13:44:30 02:00</time>
      </trkpt>
      <trkpt lat="48.72268" lon="-3.968">
        <ele>9.3</ele>
        <time>2019-07-14T13:44:50 02:00</time>
      </trkpt>
      <trkpt lat="48.72281" lon="-3.9683">
        <ele>9.9</ele>
        <time>2019-07-14T13:45:09 02:00</time>
      </trkpt>
      <trkpt lat="48.72302" lon="-3.96846">
        <ele>10.9</ele>
        <time>2019-07-14T13:45:34 02:00</time>
      </trkpt>
      <trkpt lat="48.72324" lon="-3.96855">
        <ele>9.9</ele>
        <time>2019-07-14T13:45:57 02:00</time>
      </trkpt>
      <trkpt lat="48.72347" lon="-3.96855">
        <ele>6.3</ele>
        <time>2019-07-14T13:46:24 02:00</time>
      </trkpt>
      <trkpt lat="48.72369" lon="-3.96863">
        <ele>5.9</ele>
        <time>2019-07-14T13:46:47 02:00</time>
      </trkpt>
      <trkpt lat="48.72374" lon="-3.96897">
        <ele>6.7</ele>
        <time>2019-07-14T13:47:09 02:00</time>
      </trkpt>
      <trkpt lat="48.72391" lon="-3.9692">
        <ele>8.3</ele>
        <time>2019-07-14T13:47:24 02:00</time>
      </trkpt>
      <trkpt lat="48.72402" lon="-3.96951">
        <ele>9.1</ele>
        <time>2019-07-14T13:47:43 02:00</time>
      </trkpt>
      <trkpt lat="48.72415" lon="-3.96979">
        <ele>9.9</ele>
        <time>2019-07-14T13:48:03 02:00</time>
      </trkpt>
      <trkpt lat="48.72439" lon="-3.9698">
        <ele>7.6</ele>
        <time>2019-07-14T13:48:30 02:00</time>
      </trkpt>
      <trkpt lat="48.72461" lon="-3.96985">
        <ele>7.1</ele>
        <time>2019-07-14T13:48:53 02:00</time>
      </trkpt>
      <trkpt lat="48.72469" lon="-3.97018">
        <ele>9.3</ele>
        <time>2019-07-14T13:49:11 02:00</time>
      </trkpt>
      <trkpt lat="48.72486" lon="-3.97041">
        <ele>9.7</ele>
        <time>2019-07-14T13:49:31 02:00</time>
      </trkpt>
      <trkpt lat="48.72508" lon="-3.97048">
        <ele>8.1</ele>
        <time>2019-07-14T13:49:52 02:00</time>
      </trkpt>
      <trkpt lat="48.72517" lon="-3.9708">
        <ele>9.2</ele>
        <time>2019-07-14T13:50:39 02:00</time>
      </trkpt>
      <trkpt lat="48.72531" lon="-3.97106">
        <ele>8.9</ele>
        <time>2019-07-14T13:51:16 02:00</time>
      </trkpt>
      <trkpt lat="48.72543" lon="-3.97136">
        <ele>8.4</ele>
        <time>2019-07-14T13:52:09 02:00</time>
      </trkpt>
      <trkpt lat="48.72554" lon="-3.97141">
        <ele>7.9</ele>
        <time>2019-07-14T14:36:10 02:00</time>
      </trkpt>
      <trkpt lat="48.72532" lon="-3.97131">
        <ele>8.8</ele>
        <time>2019-07-14T14:38:02 02:00</time>
      </trkpt>
      <trkpt lat="48.7251" lon="-3.97143">
        <ele>9.5</ele>
        <time>2019-07-14T14:38:18 02:00</time>
      </trkpt>
      <trkpt lat="48.72487" lon="-3.97145">
        <ele>12.1</ele>
        <time>2019-07-14T14:38:39 02:00</time>
      </trkpt>
      <trkpt lat="48.72472" lon="-3.97174">
        <ele>11.2</ele>
        <time>2019-07-14T14:39:03 02:00</time>
      </trkpt>
      <trkpt lat="48.72471" lon="-3.97209">
        <ele>10.5</ele>
        <time>2019-07-14T14:39:23 02:00</time>
      </trkpt>
      <trkpt lat="48.72487" lon="-3.97232">
        <ele>8.2</ele>
        <time>2019-07-14T14:40:06 02:00</time>
      </trkpt>
      <trkpt lat="48.72509" lon="-3.97245">
        <ele>4.8</ele>
        <time>2019-07-14T14:40:51 02:00</time>
      </trkpt>
      <trkpt lat="48.72486" lon="-3.97244">
        <ele>7.3</ele>
        <time>2019-07-14T14:45:40 02:00</time>
      </trkpt>
      <trkpt lat="48.72477" lon="-3.97277">
        <ele>7.4</ele>
        <time>2019-07-14T14:46:07 02:00</time>
      </trkpt>
      <trkpt lat="48.72468" lon="-3.97309">
        <ele>8</ele>
        <time>2019-07-14T14:46:40 02:00</time>
      </trkpt>
      <trkpt lat="48.72468" lon="-3.97343">
        <ele>4.8</ele>
        <time>2019-07-14T14:47:01 02:00</time>
      </trkpt>
      <trkpt lat="48.72463" lon="-3.97378">
        <ele>4.2</ele>
        <time>2019-07-14T14:47:40 02:00</time>
      </trkpt>
      <trkpt lat="48.72464" lon="-3.97413">
        <ele>3.6</ele>
        <time>2019-07-14T14:48:04 02:00</time>
      </trkpt>
      <trkpt lat="48.72445" lon="-3.9743">
        <ele>3.3</ele>
        <time>2019-07-14T14:49:18 02:00</time>
      </trkpt>
      <trkpt lat="48.72423" lon="-3.97423">
        <ele>3.8</ele>
        <time>2019-07-14T14:49:38 02:00</time>
      </trkpt>
      <trkpt lat="48.72401" lon="-3.97409">
        <ele>5.7</ele>
        <time>2019-07-14T14:49:59 02:00</time>
      </trkpt>
      <trkpt lat="48.72379" lon="-3.97408">
        <ele>6.7</ele>
        <time>2019-07-14T14:50:35 02:00</time>
      </trkpt>
      <trkpt lat="48.72358" lon="-3.97425">
        <ele>6.6</ele>
        <time>2019-07-14T14:51:03 02:00</time>
      </trkpt>
      <trkpt lat="48.72339" lon="-3.97443">
        <ele>6.7</ele>
        <time>2019-07-14T14:51:29 02:00</time>
      </trkpt>
      <trkpt lat="48.72331" lon="-3.97476">
        <ele>8.1</ele>
        <time>2019-07-14T14:51:48 02:00</time>
      </trkpt>
      <trkpt lat="48.72322" lon="-3.97509">
        <ele>6.9</ele>
        <time>2019-07-14T14:52:09 02:00</time>
      </trkpt>
      <trkpt lat="48.72313" lon="-3.97542">
        <ele>7.2</ele>
        <time>2019-07-14T14:52:31 02:00</time>
      </trkpt>
      <trkpt lat="48.72296" lon="-3.97567">
        <ele>7.3</ele>
        <time>2019-07-14T14:52:51 02:00</time>
      </trkpt>
      <trkpt lat="48.72281" lon="-3.97591">
        <ele>7.3</ele>
        <time>2019-07-14T14:53:13 02:00</time>
      </trkpt>
      <trkpt lat="48.72291" lon="-3.97623">
        <ele>6.7</ele>
        <time>2019-07-14T14:53:53 02:00</time>
      </trkpt>
      <trkpt lat="48.72306" lon="-3.97649">
        <ele>6.5</ele>
        <time>2019-07-14T14:54:12 02:00</time>
      </trkpt>
      <trkpt lat="48.72299" lon="-3.97681">
        <ele>6.2</ele>
        <time>2019-07-14T14:54:31 02:00</time>
      </trkpt>
      <trkpt lat="48.72288" lon="-3.97712">
        <ele>6</ele>
        <time>2019-07-14T14:54:51 02:00</time>
      </trkpt>
      <trkpt lat="48.72279" lon="-3.97743">
        <ele>5.5</ele>
        <time>2019-07-14T14:55:10 02:00</time>
      </trkpt>
      <trkpt lat="48.72269" lon="-3.97774">
        <ele>5</ele>
        <time>2019-07-14T14:55:29 02:00</time>
      </trkpt>
      <trkpt lat="48.72258" lon="-3.97805">
        <ele>5</ele>
        <time>2019-07-14T14:55:48 02:00</time>
      </trkpt>
      <trkpt lat="48.72247" lon="-3.97835">
        <ele>9</ele>
        <time>2019-07-14T14:56:07 02:00</time>
      </trkpt>
      <trkpt lat="48.72249" lon="-3.97869">
        <ele>9</ele>
        <time>2019-07-14T14:56:27 02:00</time>
      </trkpt>
      <trkpt lat="48.72232" lon="-3.97895">
        <ele>9</ele>
        <time>2019-07-14T14:56:48 02:00</time>
      </trkpt>
      <trkpt lat="48.72252" lon="-3.97915">
        <ele>5.6</ele>
        <time>2019-07-14T14:58:09 02:00</time>
      </trkpt>
      <trkpt lat="48.72259" lon="-3.97949">
        <ele>6</ele>
        <time>2019-07-14T14:58:28 02:00</time>
      </trkpt>
      <trkpt lat="48.72265" lon="-3.97983">
        <ele>6</ele>
        <time>2019-07-14T14:58:50 02:00</time>
      </trkpt>
      <trkpt lat="48.72278" lon="-3.98011">
        <ele>6.3</ele>
        <time>2019-07-14T14:59:10 02:00</time>
      </trkpt>
      <trkpt lat="48.72295" lon="-3.98035">
        <ele>6.3</ele>
        <time>2019-07-14T14:59:30 02:00</time>
      </trkpt>
      <trkpt lat="48.72312" lon="-3.98058">
        <ele>6</ele>
        <time>2019-07-14T14:59:48 02:00</time>
      </trkpt>
      <trkpt lat="48.72324" lon="-3.98088">
        <ele>5.9</ele>
        <time>2019-07-14T15:00:10 02:00</time>
      </trkpt>
      <trkpt lat="48.72339" lon="-3.98115">
        <ele>5.5</ele>
        <time>2019-07-14T15:00:32 02:00</time>
      </trkpt>
      <trkpt lat="48.72354" lon="-3.98141">
        <ele>5.7</ele>
        <time>2019-07-14T15:03:13 02:00</time>
      </trkpt>
      <trkpt lat="48.72374" lon="-3.98163">
        <ele>5.4</ele>
        <time>2019-07-14T15:03:33 02:00</time>
      </trkpt>
      <trkpt lat="48.72393" lon="-3.98183">
        <ele>5.6</ele>
        <time>2019-07-14T15:03:50 02:00</time>
      </trkpt>
      <trkpt lat="48.72414" lon="-3.98198">
        <ele>5.6</ele>
        <time>2019-07-14T15:04:08 02:00</time>
      </trkpt>
      <trkpt lat="48.72435" lon="-3.98213">
        <ele>5.3</ele>
        <time>2019-07-14T15:04:29 02:00</time>
      </trkpt>
      <trkpt lat="48.72456" lon="-3.98224">
        <ele>5.5</ele>
        <time>2019-07-14T15:04:48 02:00</time>
      </trkpt>
      <trkpt lat="48.72476" lon="-3.9824">
        <ele>5.7</ele>
        <time>2019-07-14T15:05:11 02:00</time>
      </trkpt>
      <trkpt lat="48.72499" lon="-3.98247">
        <ele>5.9</ele>
        <time>2019-07-14T15:05:29 02:00</time>
      </trkpt>
      <trkpt lat="48.72522" lon="-3.98251">
        <ele>6.4</ele>
        <time>2019-07-14T15:05:50 02:00</time>
      </trkpt>
      <trkpt lat="48.72538" lon="-3.98276">
        <ele>6.7</ele>
        <time>2019-07-14T15:06:17 02:00</time>
      </trkpt>
      <trkpt lat="48.72551" lon="-3.98305">
        <ele>7.3</ele>
        <time>2019-07-14T15:07:30 02:00</time>
      </trkpt>
      <trkpt lat="48.72569" lon="-3.98283">
        <ele>6.7</ele>
        <time>2019-07-14T15:22:05 02:00</time>
      </trkpt>
      <trkpt lat="48.72592" lon="-3.98287">
        <ele>5.2</ele>
        <time>2019-07-14T15:22:25 02:00</time>
      </trkpt>
      <trkpt lat="48.72614" lon="-3.98294">
        <ele>4.9</ele>
        <time>2019-07-14T15:22:47 02:00</time>
      </trkpt>
      <trkpt lat="48.72625" lon="-3.98325">
        <ele>4.8</ele>
        <time>2019-07-14T15:23:08 02:00</time>
      </trkpt>
      <trkpt lat="48.72615" lon="-3.98356">
        <ele>6.7</ele>
        <time>2019-07-14T15:23:41 02:00</time>
      </trkpt>
      <trkpt lat="48.72604" lon="-3.98387">
        <ele>7.4</ele>
        <time>2019-07-14T15:24:04 02:00</time>
      </trkpt>
      <trkpt lat="48.72621" lon="-3.9841">
        <ele>7</ele>
        <time>2019-07-14T15:24:25 02:00</time>
      </trkpt>
      <trkpt lat="48.72637" lon="-3.98437">
        <ele>7.5</ele>
        <time>2019-07-14T15:24:46 02:00</time>
      </trkpt>
      <trkpt lat="48.72641" lon="-3.98471">
        <ele>8</ele>
        <time>2019-07-14T15:25:11 02:00</time>
      </trkpt>
      <trkpt lat="48.72649" lon="-3.98505">
        <ele>8.7</ele>
        <time>2019-07-14T15:25:27 02:00</time>
      </trkpt>
      <trkpt lat="48.72664" lon="-3.98531">
        <ele>8.7</ele>
        <time>2019-07-14T15:25:48 02:00</time>
      </trkpt>
      <trkpt lat="48.72681" lon="-3.98554">
        <ele>7.9</ele>
        <time>2019-07-14T15:26:10 02:00</time>
      </trkpt>
      <trkpt lat="48.72694" lon="-3.98584">
        <ele>7.2</ele>
        <time>2019-07-14T15:26:27 02:00</time>
      </trkpt>
      <trkpt lat="48.72708" lon="-3.98611">
        <ele>6.5</ele>
        <time>2019-07-14T15:26:46 02:00</time>
      </trkpt>
      <trkpt lat="48.7269" lon="-3.98633">
        <ele>7</ele>
        <time>2019-07-14T15:27:20 02:00</time>
      </trkpt>
      <trkpt lat="48.72675" lon="-3.9866">
        <ele>8.1</ele>
        <time>2019-07-14T15:27:38 02:00</time>
      </trkpt>
      <trkpt lat="48.72676" lon="-3.98696">
        <ele>6.9</ele>
        <time>2019-07-14T15:27:58 02:00</time>
      </trkpt>
      <trkpt lat="48.72689" lon="-3.98726">
        <ele>6.3</ele>
        <time>2019-07-14T15:29:32 02:00</time>
      </trkpt>
      <trkpt lat="48.72698" lon="-3.98758">
        <ele>6.2</ele>
        <time>2019-07-14T15:29:46 02:00</time>
      </trkpt>
      <trkpt lat="48.72713" lon="-3.98784">
        <ele>5.7</ele>
        <time>2019-07-14T15:30:11 02:00</time>
      </trkpt>
      <trkpt lat="48.72714" lon="-3.98819">
        <ele>6.3</ele>
        <time>2019-07-14T15:30:25 02:00</time>
      </trkpt>
      <trkpt lat="48.72712" lon="-3.98853">
        <ele>6.5</ele>
        <time>2019-07-14T15:30:46 02:00</time>
      </trkpt>
      <trkpt lat="48.72708" lon="-3.98889">
        <ele>5.7</ele>
        <time>2019-07-14T15:31:03 02:00</time>
      </trkpt>
      <trkpt lat="48.72692" lon="-3.98914">
        <ele>4.9</ele>
        <time>2019-07-14T15:31:28 02:00</time>
      </trkpt>
      <trkpt lat="48.72669" lon="-3.98922">
        <ele>3.9</ele>
        <time>2019-07-14T15:31:59 02:00</time>
      </trkpt>
      <trkpt lat="48.72648" lon="-3.98937">
        <ele>5.3</ele>
        <time>2019-07-14T15:32:12 02:00</time>
      </trkpt>
      <trkpt lat="48.72624" lon="-3.98958">
        <ele>6</ele>
        <time>2019-07-14T15:32:25 02:00</time>
      </trkpt>
      <trkpt lat="48.72605" lon="-3.9898">
        <ele>6.6</ele>
        <time>2019-07-14T15:32:38 02:00</time>
      </trkpt>
      <trkpt lat="48.72585" lon="-3.98998">
        <ele>7.8</ele>
        <time>2019-07-14T15:33:04 02:00</time>
      </trkpt>
      <trkpt lat="48.72566" lon="-3.99019">
        <ele>7.6</ele>
        <time>2019-07-14T15:33:25 02:00</time>
      </trkpt>
      <trkpt lat="48.72549" lon="-3.99042">
        <ele>7.3</ele>
        <time>2019-07-14T15:33:44 02:00</time>
      </trkpt>
      <trkpt lat="48.72534" lon="-3.99067">
        <ele>7.1</ele>
        <time>2019-07-14T15:34:21 02:00</time>
      </trkpt>
      <trkpt lat="48.72517" lon="-3.99091">
        <ele>6.1</ele>
        <time>2019-07-14T15:34:39 02:00</time>
      </trkpt>
      <trkpt lat="48.72494" lon="-3.99093">
        <ele>7.3</ele>
        <time>2019-07-14T15:35:15 02:00</time>
      </trkpt>
      <trkpt lat="48.72475" lon="-3.99112">
        <ele>6.5</ele>
        <time>2019-07-14T15:36:20 02:00</time>
      </trkpt>
      <trkpt lat="48.72454" lon="-3.99124">
        <ele>6.3</ele>
        <time>2019-07-14T15:36:42 02:00</time>
      </trkpt>
      <trkpt lat="48.72437" lon="-3.99147">
        <ele>5.8</ele>
        <time>2019-07-14T15:37:04 02:00</time>
      </trkpt>
      <trkpt lat="48.72429" lon="-3.99113">
        <ele>6.9</ele>
        <time>2019-07-14T15:37:56 02:00</time>
      </trkpt>
      <trkpt lat="48.72418" lon="-3.99083">
        <ele>9</ele>
        <time>2019-07-14T15:38:16 02:00</time>
      </trkpt>
      <trkpt lat="48.72393" lon="-3.99088">
        <ele>7.5</ele>
        <time>2019-07-14T15:38:35 02:00</time>
      </trkpt>
      <trkpt lat="48.72372" lon="-3.991">
        <ele>6.9</ele>
        <time>2019-07-14T15:38:55 02:00</time>
      </trkpt>
      <trkpt lat="48.7235" lon="-3.99109">
        <ele>6.6</ele>
        <time>2019-07-14T15:39:15 02:00</time>
      </trkpt>
      <trkpt lat="48.72328" lon="-3.9912">
        <ele>6.6</ele>
        <time>2019-07-14T15:39:36 02:00</time>
      </trkpt>
      <trkpt lat="48.72308" lon="-3.99138">
        <ele>6.8</ele>
        <time>2019-07-14T15:39:53 02:00</time>
      </trkpt>
      <trkpt lat="48.72288" lon="-3.99154">
        <ele>6.8</ele>
        <time>2019-07-14T15:40:11 02:00</time>
      </trkpt>
      <trkpt lat="48.72266" lon="-3.99165">
        <ele>6.9</ele>
        <time>2019-07-14T15:40:29 02:00</time>
      </trkpt>
      <trkpt lat="48.72248" lon="-3.99142">
        <ele>8.1</ele>
        <time>2019-07-14T15:40:46 02:00</time>
      </trkpt>
      <trkpt lat="48.72234" lon="-3.99115">
        <ele>8.4</ele>
        <time>2019-07-14T15:41:04 02:00</time>
      </trkpt>
      <trkpt lat="48.72214" lon="-3.991">
        <ele>8.6</ele>
        <time>2019-07-14T15:41:23 02:00</time>
      </trkpt>
      <trkpt lat="48.7219" lon="-3.99092">
        <ele>9</ele>
        <time>2019-07-14T15:41:46 02:00</time>
      </trkpt>
      <trkpt lat="48.72168" lon="-3.99081">
        <ele>8.9</ele>
        <time>2019-07-14T15:42:06 02:00</time>
      </trkpt>
      <trkpt lat="48.72148" lon="-3.99065">
        <ele>8.5</ele>
        <time>2019-07-14T15:42:26 02:00</time>
      </trkpt>
      <trkpt lat="48.72127" lon="-3.99046">
        <ele>8.3</ele>
        <time>2019-07-14T15:42:43 02:00</time>
      </trkpt>
      <trkpt lat="48.72106" lon="-3.99031">
        <ele>8.2</ele>
        <time>2019-07-14T15:43:05 02:00</time>
      </trkpt>
      <trkpt lat="48.72085" lon="-3.99016">
        <ele>8.1</ele>
        <time>2019-07-14T15:43:25 02:00</time>
      </trkpt>
      <trkpt lat="48.72066" lon="-3.98997">
        <ele>7.8</ele>
        <time>2019-07-14T15:44:33 02:00</time>
      </trkpt>
      <trkpt lat="48.72043" lon="-3.98988">
        <ele>7.5</ele>
        <time>2019-07-14T15:44:53 02:00</time>
      </trkpt>
      <trkpt lat="48.72023" lon="-3.98974">
        <ele>7.4</ele>
        <time>2019-07-14T15:45:07 02:00</time>
      </trkpt>
      <trkpt lat="48.72001" lon="-3.98965">
        <ele>7.3</ele>
        <time>2019-07-14T15:45:28 02:00</time>
      </trkpt>
      <trkpt lat="48.71984" lon="-3.98991">
        <ele>6.7</ele>
        <time>2019-07-14T15:46:15 02:00</time>
      </trkpt>
      <trkpt lat="48.71969" lon="-3.9902">
        <ele>5.7</ele>
        <time>2019-07-14T15:46:29 02:00</time>
      </trkpt>
      <trkpt lat="48.71961" lon="-3.99051">
        <ele>5.4</ele>
        <time>2019-07-14T15:46:45 02:00</time>
      </trkpt>
      <trkpt lat="48.7195" lon="-3.99084">
        <ele>4.8</ele>
        <time>2019-07-14T15:47:08 02:00</time>
      </trkpt>
      <trkpt lat="48.7195" lon="-3.99119">
        <ele>5</ele>
        <time>2019-07-14T15:47:26 02:00</time>
      </trkpt>
      <trkpt lat="48.71927" lon="-3.99127">
        <ele>5</ele>
        <time>2019-07-14T15:48:06 02:00</time>
      </trkpt>
      <trkpt lat="48.71904" lon="-3.99122">
        <ele>4</ele>
        <time>2019-07-14T15:48:19 02:00</time>
      </trkpt>
      <trkpt lat="48.71883" lon="-3.99107">
        <ele>4.1</ele>
        <time>2019-07-14T15:48:39 02:00</time>
      </trkpt>
      <trkpt lat="48.71861" lon="-3.99096">
        <ele>4.2</ele>
        <time>2019-07-14T15:49:02 02:00</time>
      </trkpt>
      <trkpt lat="48.71838" lon="-3.99096">
        <ele>4.4</ele>
        <time>2019-07-14T15:49:28 02:00</time>
      </trkpt>
      <trkpt lat="48.71816" lon="-3.99109">
        <ele>3.7</ele>
        <time>2019-07-14T15:49:53 02:00</time>
      </trkpt>
      <trkpt lat="48.71793" lon="-3.99111">
        <ele>3.6</ele>
        <time>2019-07-14T15:50:12 02:00</time>
      </trkpt>
      <trkpt lat="48.71772" lon="-3.99121">
        <ele>3.5</ele>
        <time>2019-07-14T15:50:40 02:00</time>
      </trkpt>
      <trkpt lat="48.7175" lon="-3.99132">
        <ele>3.5</ele>
        <time>2019-07-14T15:51:00 02:00</time>
      </trkpt>
      <trkpt lat="48.71731" lon="-3.99149">
        <ele>2.9</ele>
        <time>2019-07-14T15:51:26 02:00</time>
      </trkpt>
      <trkpt lat="48.71708" lon="-3.99147">
        <ele>2.6</ele>
        <time>2019-07-14T15:52:20 02:00</time>
      </trkpt>
      <trkpt lat="48.71725" lon="-3.99169">
        <ele>1</ele>
        <time>2019-07-14T15:53:26 02:00</time>
      </trkpt>
      <trkpt lat="48.71703" lon="-3.99178">
        <ele>1</ele>
        <time>2019-07-14T15:54:44 02:00</time>
      </trkpt>
      <trkpt lat="48.7168" lon="-3.99181">
        <ele>1</ele>
        <time>2019-07-14T16:09:27 02:00</time>
      </trkpt>
      <trkpt lat="48.7166" lon="-3.99199">
        <ele>1.9</ele>
        <time>2019-07-14T16:09:44 02:00</time>
      </trkpt>
      <trkpt lat="48.71638" lon="-3.99208">
        <ele>2.3</ele>
        <time>2019-07-14T16:10:04 02:00</time>
      </trkpt>
      <trkpt lat="48.71618" lon="-3.99225">
        <ele>2.6</ele>
        <time>2019-07-14T16:10:29 02:00</time>
      </trkpt>
      <trkpt lat="48.71597" lon="-3.99238">
        <ele>2.7</ele>
        <time>2019-07-14T16:10:49 02:00</time>
      </trkpt>
      <trkpt lat="48.71578" lon="-3.99257">
        <ele>3</ele>
        <time>2019-07-14T16:11:10 02:00</time>
      </trkpt>
      <trkpt lat="48.71558" lon="-3.99274">
        <ele>3</ele>
        <time>2019-07-14T16:12:27 02:00</time>
      </trkpt>
      <trkpt lat="48.71537" lon="-3.99289">
        <ele>3</ele>
        <time>2019-07-14T16:12:50 02:00</time>
      </trkpt>
      <trkpt lat="48.71517" lon="-3.99306">
        <ele>3</ele>
        <time>2019-07-14T16:13:08 02:00</time>
      </trkpt>
      <trkpt lat="48.71494" lon="-3.99317">
        <ele>4.3</ele>
        <time>2019-07-14T16:13:51 02:00</time>
      </trkpt>
      <trkpt lat="48.71475" lon="-3.99338">
        <ele>5.6</ele>
        <time>2019-07-14T16:14:12 02:00</time>
      </trkpt>
      <trkpt lat="48.71456" lon="-3.99357">
        <ele>5.6</ele>
        <time>2019-07-14T16:14:31 02:00</time>
      </trkpt>
      <trkpt lat="48.71438" lon="-3.99378">
        <ele>5.5</ele>
        <time>2019-07-14T16:14:50 02:00</time>
      </trkpt>
      <trkpt lat="48.71421" lon="-3.994">
        <ele>5.2</ele>
        <time>2019-07-14T16:15:11 02:00</time>
      </trkpt>
      <trkpt lat="48.71404" lon="-3.99424">
        <ele>4.8</ele>
        <time>2019-07-14T16:15:32 02:00</time>
      </trkpt>
      <trkpt lat="48.71386" lon="-3.99446">
        <ele>4.5</ele>
        <time>2019-07-14T16:15:48 02:00</time>
      </trkpt>
      <trkpt lat="48.71369" lon="-3.99469">
        <ele>4.5</ele>
        <time>2019-07-14T16:16:07 02:00</time>
      </trkpt>
      <trkpt lat="48.71352" lon="-3.99494">
        <ele>4.7</ele>
        <time>2019-07-14T16:16:25 02:00</time>
      </trkpt>
      <trkpt lat="48.71334" lon="-3.99517">
        <ele>4.4</ele>
        <time>2019-07-14T16:16:52 02:00</time>
      </trkpt>
      <trkpt lat="48.71318" lon="-3.99543">
        <ele>4</ele>
        <time>2019-07-14T16:17:06 02:00</time>
      </trkpt>
      <trkpt lat="48.71304" lon="-3.99572">
        <ele>3.6</ele>
        <time>2019-07-14T16:17:22 02:00</time>
      </trkpt>
      <trkpt lat="48.71293" lon="-3.99604">
        <ele>2.5</ele>
        <time>2019-07-14T16:17:41 02:00</time>
      </trkpt>
      <trkpt lat="48.71279" lon="-3.99631">
        <ele>2.2</ele>
        <time>2019-07-14T16:18:00 02:00</time>
      </trkpt>
      <trkpt lat="48.71265" lon="-3.99658">
        <ele>1.6</ele>
        <time>2019-07-14T16:18:17 02:00</time>
      </trkpt>
      <trkpt lat="48.71259" lon="-3.99691">
        <ele>1</ele>
        <time>2019-07-14T16:18:54 02:00</time>
      </trkpt>
      <trkpt lat="48.71254" lon="-3.99726">
        <ele>1</ele>
        <time>2019-07-14T16:21:01 02:00</time>
      </trkpt>
      <trkpt lat="48.7125" lon="-3.9976">
        <ele>1.7</ele>
        <time>2019-07-14T16:21:20 02:00</time>
      </trkpt>
      <trkpt lat="48.71252" lon="-3.99795">
        <ele>1</ele>
        <time>2019-07-14T16:22:01 02:00</time>
      </trkpt>
      <trkpt lat="48.71246" lon="-3.9983">
        <ele>1.4</ele>
        <time>2019-07-14T16:22:22 02:00</time>
      </trkpt>
      <trkpt lat="48.71242" lon="-3.99865">
        <ele>3.6</ele>
        <time>2019-07-14T16:22:41 02:00</time>
      </trkpt>
      <trkpt lat="48.71238" lon="-3.99899">
        <ele>4.8</ele>
        <time>2019-07-14T16:22:59 02:00</time>
      </trkpt>
      <trkpt lat="48.71225" lon="-3.99928">
        <ele>8.4</ele>
        <time>2019-07-14T16:23:19 02:00</time>
      </trkpt>
      <trkpt lat="48.71205" lon="-3.9991">
        <ele>5.9</ele>
        <time>2019-07-14T16:23:38 02:00</time>
      </trkpt>
      <trkpt lat="48.71184" lon="-3.99901">
        <ele>6.5</ele>
        <time>2019-07-14T16:23:55 02:00</time>
      </trkpt>
      <trkpt lat="48.71161" lon="-3.99899">
        <ele>8.9</ele>
        <time>2019-07-14T16:24:20 02:00</time>
      </trkpt>
      <trkpt lat="48.71138" lon="-3.99907">
        <ele>9.7</ele>
        <time>2019-07-14T16:24:43 02:00</time>
      </trkpt>
      <trkpt lat="48.71116" lon="-3.99896">
        <ele>10.6</ele>
        <time>2019-07-14T16:25:05 02:00</time>
      </trkpt>
      <trkpt lat="48.71099" lon="-3.99873">
        <ele>10.8</ele>
        <time>2019-07-14T16:25:26 02:00</time>
      </trkpt>
      <trkpt lat="48.71079" lon="-3.99854">
        <ele>11.9</ele>
        <time>2019-07-14T16:25:43 02:00</time>
      </trkpt>
      <trkpt lat="48.71058" lon="-3.99842">
        <ele>11.7</ele>
        <time>2019-07-14T16:26:05 02:00</time>
      </trkpt>
      <trkpt lat="48.71036" lon="-3.99837">
        <ele>11.4</ele>
        <time>2019-07-14T16:26:28 02:00</time>
      </trkpt>
      <trkpt lat="48.71014" lon="-3.9983">
        <ele>11</ele>
        <time>2019-07-14T16:26:43 02:00</time>
      </trkpt>
      <trkpt lat="48.70991" lon="-3.99831">
        <ele>11.5</ele>
        <time>2019-07-14T16:27:03 02:00</time>
      </trkpt>
      <trkpt lat="48.70969" lon="-3.9984">
        <ele>11.2</ele>
        <time>2019-07-14T16:27:20 02:00</time>
      </trkpt>
      <trkpt lat="48.70946" lon="-3.99852">
        <ele>11.5</ele>
        <time>2019-07-14T16:27:38 02:00</time>
      </trkpt>
      <trkpt lat="48.70925" lon="-3.99863">
        <ele>11.6</ele>
        <time>2019-07-14T16:27:55 02:00</time>
      </trkpt>
      <trkpt lat="48.70905" lon="-3.99884">
        <ele>13</ele>
        <time>2019-07-14T16:28:11 02:00</time>
      </trkpt>
      <trkpt lat="48.70884" lon="-3.99899">
        <ele>13.2</ele>
        <time>2019-07-14T16:28:29 02:00</time>
      </trkpt>
      <trkpt lat="48.70863" lon="-3.99916">
        <ele>13.6</ele>
        <time>2019-07-14T16:28:48 02:00</time>
      </trkpt>
      <trkpt lat="48.70842" lon="-3.99934">
        <ele>12.8</ele>
        <time>2019-07-14T16:29:08 02:00</time>
      </trkpt>
      <trkpt lat="48.70822" lon="-3.99954">
        <ele>14.9</ele>
        <time>2019-07-14T16:29:26 02:00</time>
      </trkpt>
      <trkpt lat="48.70807" lon="-3.9998">
        <ele>14.8</ele>
        <time>2019-07-14T16:29:44 02:00</time>
      </trkpt>
      <trkpt lat="48.70791" lon="-4.00007">
        <ele>14</ele>
        <time>2019-07-14T16:30:01 02:00</time>
      </trkpt>
      <trkpt lat="48.70775" lon="-4.00031">
        <ele>14.3</ele>
        <time>2019-07-14T16:30:19 02:00</time>
      </trkpt>
      <trkpt lat="48.70755" lon="-4.00051">
        <ele>14.4</ele>
        <time>2019-07-14T16:30:41 02:00</time>
      </trkpt>
      <trkpt lat="48.70737" lon="-4.00072">
        <ele>17.1</ele>
        <time>2019-07-14T16:31:00 02:00</time>
      </trkpt>
      <trkpt lat="48.70719" lon="-4.00094">
        <ele>16.8</ele>
        <time>2019-07-14T16:31:18 02:00</time>
      </trkpt>
      <trkpt lat="48.70701" lon="-4.00114">
        <ele>17.4</ele>
        <time>2019-07-14T16:33:52 02:00</time>
      </trkpt>
      <trkpt lat="48.7068" lon="-4.00127">
        <ele>17.9</ele>
        <time>2019-07-14T16:34:21 02:00</time>
      </trkpt>
      <trkpt lat="48.70659" lon="-4.00141">
        <ele>21.5</ele>
        <time>2019-07-14T16:34:41 02:00</time>
      </trkpt>
      <trkpt lat="48.70644" lon="-4.00115">
        <ele>22.5</ele>
        <time>2019-07-14T16:35:02 02:00</time>
      </trkpt>
      <trkpt lat="48.70624" lon="-4.00098">
        <ele>23.3</ele>
        <time>2019-07-14T16:35:22 02:00</time>
      </trkpt>
      <trkpt lat="48.70603" lon="-4.00084">
        <ele>24.8</ele>
        <time>2019-07-14T16:35:42 02:00</time>
      </trkpt>
      <trkpt lat="48.70584" lon="-4.00067">
        <ele>26.6</ele>
        <time>2019-07-14T16:36:00 02:00</time>
      </trkpt>
      <trkpt lat="48.70567" lon="-4.00043">
        <ele>30</ele>
        <time>2019-07-14T16:36:24 02:00</time>
      </trkpt>
      <trkpt lat="48.70579" lon="-4.00014">
        <ele>30.7</ele>
        <time>2019-07-14T16:36:53 02:00</time>
      </trkpt>
      <trkpt lat="48.70599" lon="-3.99996">
        <ele>30.2</ele>
        <time>2019-07-14T16:37:15 02:00</time>
      </trkpt>
      <trkpt lat="48.70614" lon="-3.99971">
        <ele>29.7</ele>
        <time>2019-07-14T16:37:38 02:00</time>
      </trkpt>
      <trkpt lat="48.706" lon="-3.99943">
        <ele>31.3</ele>
        <time>2019-07-14T16:37:59 02:00</time>
      </trkpt>
      <trkpt lat="48.70594" lon="-3.99909">
        <ele>35.3</ele>
        <time>2019-07-14T16:38:25 02:00</time>
      </trkpt>
      <trkpt lat="48.70602" lon="-3.99877">
        <ele>35.4</ele>
        <time>2019-07-14T16:38:53 02:00</time>
      </trkpt>
      <trkpt lat="48.70605" lon="-3.99842">
        <ele>37.2</ele>
        <time>2019-07-14T16:39:21 02:00</time>
      </trkpt>
      <trkpt lat="48.70602" lon="-3.99808">
        <ele>39.9</ele>
        <time>2019-07-14T16:39:54 02:00</time>
      </trkpt>
      <trkpt lat="48.70601" lon="-3.99772">
        <ele>41</ele>
        <time>2019-07-14T16:40:22 02:00</time>
      </trkpt>
      <trkpt lat="48.70607" lon="-3.99737">
        <ele>42.6</ele>
        <time>2019-07-14T16:40:40 02:00</time>
      </trkpt>
      <trkpt lat="48.70614" lon="-3.99704">
        <ele>42.2</ele>
        <time>2019-07-14T16:41:46 02:00</time>
      </trkpt>
      <trkpt lat="48.70634" lon="-3.99689">
        <ele>41.6</ele>
        <time>2019-07-14T16:42:28 02:00</time>
      </trkpt>
      <trkpt lat="48.70655" lon="-3.99674">
        <ele>40.7</ele>
        <time>2019-07-14T16:42:49 02:00</time>
      </trkpt>
      <trkpt lat="48.70676" lon="-3.99657">
        <ele>39.1</ele>
        <time>2019-07-14T16:43:07 02:00</time>
      </trkpt>
      <trkpt lat="48.70669" lon="-3.99624">
        <ele>38.9</ele>
        <time>2019-07-14T16:43:37 02:00</time>
      </trkpt>
      <trkpt lat="48.70656" lon="-3.99597">
        <ele>41.6</ele>
        <time>2019-07-14T16:43:57 02:00</time>
      </trkpt>
      <trkpt lat="48.70642" lon="-3.99569">
        <ele>42.4</ele>
        <time>2019-07-14T16:44:26 02:00</time>
      </trkpt>
      <trkpt lat="48.70631" lon="-3.99537">
        <ele>43</ele>
        <time>2019-07-14T16:44:43 02:00</time>
      </trkpt>
      <trkpt lat="48.70619" lon="-3.99508">
        <ele>43.4</ele>
        <time>2019-07-14T16:45:02 02:00</time>
      </trkpt>
      <trkpt lat="48.70606" lon="-3.99478">
        <ele>45.1</ele>
        <time>2019-07-14T16:45:22 02:00</time>
      </trkpt>
      <trkpt lat="48.70601" lon="-3.99443">
        <ele>45.9</ele>
        <time>2019-07-14T16:45:44 02:00</time>
      </trkpt>
      <trkpt lat="48.70594" lon="-3.99411">
        <ele>47.4</ele>
        <time>2019-07-14T16:46:03 02:00</time>
      </trkpt>
      <trkpt lat="48.70586" lon="-3.99379">
        <ele>47.9</ele>
        <time>2019-07-14T16:46:23 02:00</time>
      </trkpt>
      <trkpt lat="48.70579" lon="-3.99346">
        <ele>47.8</ele>
        <time>2019-07-14T16:46:44 02:00</time>
      </trkpt>
      <trkpt lat="48.70569" lon="-3.99312">
        <ele>48.5</ele>
        <time>2019-07-14T16:47:03 02:00</time>
      </trkpt>
      <trkpt lat="48.70569" lon="-3.99278">
        <ele>49.1</ele>
        <time>2019-07-14T16:47:23 02:00</time>
      </trkpt>
      <trkpt lat="48.70567" lon="-3.99243">
        <ele>50.6</ele>
        <time>2019-07-14T16:47:43 02:00</time>
      </trkpt>
      <trkpt lat="48.70564" lon="-3.99209">
        <ele>50.1</ele>
        <time>2019-07-14T16:48:00 02:00</time>
      </trkpt>
      <trkpt lat="48.70554" lon="-3.99178">
        <ele>50.1</ele>
        <time>2019-07-14T16:48:18 02:00</time>
      </trkpt>
      <trkpt lat="48.7054" lon="-3.99151">
        <ele>50</ele>
        <time>2019-07-14T16:48:35 02:00</time>
      </trkpt>
      <trkpt lat="48.70528" lon="-3.99122">
        <ele>49.9</ele>
        <time>2019-07-14T16:48:54 02:00</time>
      </trkpt>
      <trkpt lat="48.70515" lon="-3.9909">
        <ele>49.9</ele>
        <time>2019-07-14T16:49:12 02:00</time>
      </trkpt>
      <trkpt lat="48.70507" lon="-3.99059">
        <ele>49.2</ele>
        <time>2019-07-14T16:49:35 02:00</time>
      </trkpt>
      <trkpt lat="48.70502" lon="-3.99025">
        <ele>48.5</ele>
        <time>2019-07-14T16:49:53 02:00</time>
      </trkpt>
      <trkpt lat="48.70499" lon="-3.98991">
        <ele>47.1</ele>
        <time>2019-07-14T16:50:11 02:00</time>
      </trkpt>
      <trkpt lat="48.70496" lon="-3.98957">
        <ele>45.5</ele>
        <time>2019-07-14T16:50:40 02:00</time>
      </trkpt>
      <trkpt lat="48.70481" lon="-3.98929">
        <ele>44.8</ele>
        <time>2019-07-14T16:51:18 02:00</time>
      </trkpt>
      <trkpt lat="48.70476" lon="-3.98895">
        <ele>43.1</ele>
        <time>2019-07-14T16:51:37 02:00</time>
      </trkpt>
      <trkpt lat="48.70473" lon="-3.98859">
        <ele>42.4</ele>
        <time>2019-07-14T16:51:58 02:00</time>
      </trkpt>
      <trkpt lat="48.70457" lon="-3.98834">
        <ele>42.3</ele>
        <time>2019-07-14T16:52:16 02:00</time>
      </trkpt>
      <trkpt lat="48.70439" lon="-3.98813">
        <ele>41.3</ele>
        <time>2019-07-14T16:52:35 02:00</time>
      </trkpt>
      <trkpt lat="48.70419" lon="-3.98796">
        <ele>41.2</ele>
        <time>2019-07-14T16:52:53 02:00</time>
      </trkpt>
      <trkpt lat="48.70398" lon="-3.98781">
        <ele>40.9</ele>
        <time>2019-07-14T16:53:11 02:00</time>
      </trkpt>
      <trkpt lat="48.70386" lon="-3.98752">
        <ele>40.8</ele>
        <time>2019-07-14T16:53:32 02:00</time>
      </trkpt>
      <trkpt lat="48.70367" lon="-3.98732">
        <ele>39.9</ele>
        <time>2019-07-14T16:54:17 02:00</time>
      </trkpt>
      <trkpt lat="48.70375" lon="-3.98698">
        <ele>39.7</ele>
        <time>2019-07-14T16:54:37 02:00</time>
      </trkpt>
      <trkpt lat="48.70354" lon="-3.98681">
        <ele>39.4</ele>
        <time>2019-07-14T16:55:00 02:00</time>
      </trkpt>
      <trkpt lat="48.70332" lon="-3.98692">
        <ele>39.8</ele>
        <time>2019-07-14T16:55:17 02:00</time>
      </trkpt>
      <trkpt lat="48.70313" lon="-3.98713">
        <ele>40.1</ele>
        <time>2019-07-14T16:55:36 02:00</time>
      </trkpt>
      <trkpt lat="48.70297" lon="-3.9874">
        <ele>40.3</ele>
        <time>2019-07-14T16:55:58 02:00</time>
      </trkpt>
      <trkpt lat="48.70277" lon="-3.98755">
        <ele>40.5</ele>
        <time>2019-07-14T16:56:17 02:00</time>
      </trkpt>
      <trkpt lat="48.70254" lon="-3.98748">
        <ele>40.9</ele>
        <time>2019-07-14T16:56:38 02:00</time>
      </trkpt>
      <trkpt lat="48.70231" lon="-3.98738">
        <ele>40.3</ele>
        <time>2019-07-14T16:56:58 02:00</time>
      </trkpt>
      <trkpt lat="48.70209" lon="-3.98724">
        <ele>39.9</ele>
        <time>2019-07-14T16:59:30 02:00</time>
      </trkpt>
      <trkpt lat="48.70187" lon="-3.9872">
        <ele>39.6</ele>
        <time>2019-07-14T16:59:51 02:00</time>
      </trkpt>
      <trkpt lat="48.70165" lon="-3.98729">
        <ele>38.5</ele>
        <time>2019-07-14T17:00:11 02:00</time>
      </trkpt>
      <trkpt lat="48.70141" lon="-3.98732">
        <ele>38.6</ele>
        <time>2019-07-14T17:00:29 02:00</time>
      </trkpt>
      <trkpt lat="48.70119" lon="-3.98736">
        <ele>38.7</ele>
        <time>2019-07-14T17:00:47 02:00</time>
      </trkpt>
      <trkpt lat="48.70096" lon="-3.98737">
        <ele>38.8</ele>
        <time>2019-07-14T17:01:07 02:00</time>
      </trkpt>
      <trkpt lat="48.70073" lon="-3.98736">
        <ele>38.4</ele>
        <time>2019-07-14T17:01:26 02:00</time>
      </trkpt>
      <trkpt lat="48.7005" lon="-3.98734">
        <ele>38</ele>
        <time>2019-07-14T17:01:44 02:00</time>
      </trkpt>
      <trkpt lat="48.70028" lon="-3.98727">
        <ele>37.8</ele>
        <time>2019-07-14T17:02:03 02:00</time>
      </trkpt>
      <trkpt lat="48.70005" lon="-3.98722">
        <ele>37.7</ele>
        <time>2019-07-14T17:02:20 02:00</time>
      </trkpt>
      <trkpt lat="48.69983" lon="-3.98716">
        <ele>36.9</ele>
        <time>2019-07-14T17:02:42 02:00</time>
      </trkpt>
      <trkpt lat="48.69965" lon="-3.98695">
        <ele>36.6</ele>
        <time>2019-07-14T17:03:07 02:00</time>
      </trkpt>
      <trkpt lat="48.69946" lon="-3.98675">
        <ele>36.2</ele>
        <time>2019-07-14T17:03:25 02:00</time>
      </trkpt>
      <trkpt lat="48.69959" lon="-3.98646">
        <ele>34.4</ele>
        <time>2019-07-14T17:03:45 02:00</time>
      </trkpt>
      <trkpt lat="48.69968" lon="-3.98612">
        <ele>34.1</ele>
        <time>2019-07-14T17:04:04 02:00</time>
      </trkpt>
      <trkpt lat="48.69978" lon="-3.98581">
        <ele>33.2</ele>
        <time>2019-07-14T17:04:24 02:00</time>
      </trkpt>
      <trkpt lat="48.69964" lon="-3.98554">
        <ele>31.7</ele>
        <time>2019-07-14T17:04:45 02:00</time>
      </trkpt>
      <trkpt lat="48.69942" lon="-3.98543">
        <ele>30.5</ele>
        <time>2019-07-14T17:05:03 02:00</time>
      </trkpt>
      <trkpt lat="48.69921" lon="-3.9853">
        <ele>29.2</ele>
        <time>2019-07-14T17:05:31 02:00</time>
      </trkpt>
      <trkpt lat="48.69907" lon="-3.98502">
        <ele>25.6</ele>
        <time>2019-07-14T17:06:02 02:00</time>
      </trkpt>
      <trkpt lat="48.69904" lon="-3.98467">
        <ele>22.7</ele>
        <time>2019-07-14T17:06:23 02:00</time>
      </trkpt>
      <trkpt lat="48.69897" lon="-3.98435">
        <ele>21.9</ele>
        <time>2019-07-14T17:06:47 02:00</time>
      </trkpt>
      <trkpt lat="48.699" lon="-3.98398">
        <ele>20.1</ele>
        <time>2019-07-14T17:07:10 02:00</time>
      </trkpt>
      <trkpt lat="48.69906" lon="-3.98365">
        <ele>19.5</ele>
        <time>2019-07-14T17:07:31 02:00</time>
      </trkpt>
      <trkpt lat="48.69911" lon="-3.98332">
        <ele>19.5</ele>
        <time>2019-07-14T17:07:49 02:00</time>
      </trkpt>
      <trkpt lat="48.69917" lon="-3.98298">
        <ele>23</ele>
        <time>2019-07-14T17:08:10 02:00</time>
      </trkpt>
      <trkpt lat="48.69921" lon="-3.98263">
        <ele>22</ele>
        <time>2019-07-14T17:08:32 02:00</time>
      </trkpt>
      <trkpt lat="48.69928" lon="-3.9823">
        <ele>22.9</ele>
        <time>2019-07-14T17:08:51 02:00</time>
      </trkpt>
      <trkpt lat="48.69937" lon="-3.98199">
        <ele>23.7</ele>
        <time>2019-07-14T17:09:17 02:00</time>
      </trkpt>
      <trkpt lat="48.69919" lon="-3.98177">
        <ele>21.7</ele>
        <time>2019-07-14T17:09:46 02:00</time>
      </trkpt>
      <trkpt lat="48.699" lon="-3.98157">
        <ele>18</ele>
        <time>2019-07-14T17:10:52 02:00</time>
      </trkpt>
      <trkpt lat="48.69905" lon="-3.98124">
        <ele>17.4</ele>
        <time>2019-07-14T17:11:20 02:00</time>
      </trkpt>
      <trkpt lat="48.69913" lon="-3.9809">
        <ele>19</ele>
        <time>2019-07-14T17:11:40 02:00</time>
      </trkpt>
      <trkpt lat="48.69903" lon="-3.98057">
        <ele>16.8</ele>
        <time>2019-07-14T17:12:00 02:00</time>
      </trkpt>
      <trkpt lat="48.69898" lon="-3.98024">
        <ele>16.2</ele>
        <time>2019-07-14T17:12:22 02:00</time>
      </trkpt>
      <trkpt lat="48.69907" lon="-3.97992">
        <ele>16.1</ele>
        <time>2019-07-14T17:12:41 02:00</time>
      </trkpt>
      <trkpt lat="48.69909" lon="-3.97958">
        <ele>14.4</ele>
        <time>2019-07-14T17:13:00 02:00</time>
      </trkpt>
      <trkpt lat="48.69915" lon="-3.97923">
        <ele>14.6</ele>
        <time>2019-07-14T17:13:20 02:00</time>
      </trkpt>
      <trkpt lat="48.69924" lon="-3.97891">
        <ele>18.5</ele>
        <time>2019-07-14T17:13:44 02:00</time>
      </trkpt>
      <trkpt lat="48.69934" lon="-3.97859">
        <ele>18.5</ele>
        <time>2019-07-14T17:14:07 02:00</time>
      </trkpt>
      <trkpt lat="48.69943" lon="-3.97827">
        <ele>16.9</ele>
        <time>2019-07-14T17:14:41 02:00</time>
      </trkpt>
      <trkpt lat="48.69952" lon="-3.97795">
        <ele>18</ele>
        <time>2019-07-14T17:15:22 02:00</time>
      </trkpt>
      <trkpt lat="48.69962" lon="-3.97765">
        <ele>18.5</ele>
        <time>2019-07-14T17:15:46 02:00</time>
      </trkpt>
      <trkpt lat="48.69972" lon="-3.97733">
        <ele>16.8</ele>
        <time>2019-07-14T17:16:26 02:00</time>
      </trkpt>
      <trkpt lat="48.69983" lon="-3.97703">
        <ele>16.1</ele>
        <time>2019-07-14T17:16:58 02:00</time>
      </trkpt>
      <trkpt lat="48.69995" lon="-3.97673">
        <ele>16.4</ele>
        <time>2019-07-14T17:17:21 02:00</time>
      </trkpt>
      <trkpt lat="48.7" lon="-3.97639">
        <ele>16.6</ele>
        <time>2019-07-14T17:17:46 02:00</time>
      </trkpt>
      <trkpt lat="48.69979" lon="-3.97626">
        <ele>10.1</ele>
        <time>2019-07-14T17:18:11 02:00</time>
      </trkpt>
      <trkpt lat="48.69957" lon="-3.97616">
        <ele>9.1</ele>
        <time>2019-07-14T17:18:40 02:00</time>
      </trkpt>
      <trkpt lat="48.69935" lon="-3.97608">
        <ele>8.3</ele>
        <time>2019-07-14T17:22:24 02:00</time>
      </trkpt>
      <trkpt lat="48.69912" lon="-3.97596">
        <ele>5.6</ele>
        <time>2019-07-14T17:22:44 02:00</time>
      </trkpt>
      <trkpt lat="48.69894" lon="-3.97616">
        <ele>5.3</ele>
        <time>2019-07-14T17:23:24 02:00</time>
      </trkpt>
      <trkpt lat="48.69885" lon="-3.9765">
        <ele>5.6</ele>
        <time>2019-07-14T17:23:43 02:00</time>
      </trkpt>
      <trkpt lat="48.69874" lon="-3.9768">
        <ele>6.8</ele>
        <time>2019-07-14T17:24:01 02:00</time>
      </trkpt>
      <trkpt lat="48.69851" lon="-3.97679">
        <ele>5.9</ele>
        <time>2019-07-14T17:24:19 02:00</time>
      </trkpt>
      <trkpt lat="48.69835" lon="-3.97653">
        <ele>4.4</ele>
        <time>2019-07-14T17:24:41 02:00</time>
      </trkpt>
      <trkpt lat="48.69836" lon="-3.97619">
        <ele>4.1</ele>
        <time>2019-07-14T17:25:00 02:00</time>
      </trkpt>
      <trkpt lat="48.69828" lon="-3.97586">
        <ele>2.5</ele>
        <time>2019-07-14T17:25:21 02:00</time>
      </trkpt>
      <trkpt lat="48.69816" lon="-3.97556">
        <ele>2.3</ele>
        <time>2019-07-14T17:25:38 02:00</time>
      </trkpt>
      <trkpt lat="48.69798" lon="-3.97536">
        <ele>2.3</ele>
        <time>2019-07-14T17:25:57 02:00</time>
      </trkpt>
      <trkpt lat="48.69777" lon="-3.97521">
        <ele>2</ele>
        <time>2019-07-14T17:26:15 02:00</time>
      </trkpt>
      <trkpt lat="48.69761" lon="-3.97495">
        <ele>1</ele>
        <time>2019-07-14T17:26:51 02:00</time>
      </trkpt>
      <trkpt lat="48.69743" lon="-3.97474">
        <ele>3.5</ele>
        <time>2019-07-14T17:28:16 02:00</time>
      </trkpt>
      <trkpt lat="48.69724" lon="-3.97455">
        <ele>4.8</ele>
        <time>2019-07-14T17:28:36 02:00</time>
      </trkpt>
      <trkpt lat="48.69707" lon="-3.97431">
        <ele>5.5</ele>
        <time>2019-07-14T17:29:00 02:00</time>
      </trkpt>
      <trkpt lat="48.69689" lon="-3.97411">
        <ele>5.6</ele>
        <time>2019-07-14T17:29:20 02:00</time>
      </trkpt>
      <trkpt lat="48.69667" lon="-3.97395">
        <ele>5.5</ele>
        <time>2019-07-14T17:29:39 02:00</time>
      </trkpt>
      <trkpt lat="48.69649" lon="-3.97373">
        <ele>8.3</ele>
        <time>2019-07-14T17:30:02 02:00</time>
      </trkpt>
      <trkpt lat="48.69631" lon="-3.97352">
        <ele>8.5</ele>
        <time>2019-07-14T17:30:23 02:00</time>
      </trkpt>
      <trkpt lat="48.69612" lon="-3.97332">
        <ele>7.2</ele>
        <time>2019-07-14T17:30:42 02:00</time>
      </trkpt>
      <trkpt lat="48.69592" lon="-3.97314">
        <ele>7.7</ele>
        <time>2019-07-14T17:31:15 02:00</time>
      </trkpt>
      <trkpt lat="48.69575" lon="-3.97292">
        <ele>9.5</ele>
        <time>2019-07-14T17:31:35 02:00</time>
      </trkpt>
      <trkpt lat="48.69555" lon="-3.9727">
        <ele>9.1</ele>
        <time>2019-07-14T17:31:54 02:00</time>
      </trkpt>
      <trkpt lat="48.69538" lon="-3.97246">
        <ele>6.6</ele>
        <time>2019-07-14T17:32:14 02:00</time>
      </trkpt>
      <trkpt lat="48.69521" lon="-3.97221">
        <ele>6.8</ele>
        <time>2019-07-14T17:32:34 02:00</time>
      </trkpt>
      <trkpt lat="48.69505" lon="-3.97194">
        <ele>5.7</ele>
        <time>2019-07-14T17:33:16 02:00</time>
      </trkpt>
      <trkpt lat="48.69488" lon="-3.97171">
        <ele>5.9</ele>
        <time>2019-07-14T17:33:36 02:00</time>
      </trkpt>
      <trkpt lat="48.69485" lon="-3.97136">
        <ele>5</ele>
        <time>2019-07-14T17:34:12 02:00</time>
      </trkpt>
      <trkpt lat="48.69469" lon="-3.97111">
        <ele>5.1</ele>
        <time>2019-07-14T17:35:17 02:00</time>
      </trkpt>
      <trkpt lat="48.69455" lon="-3.97082">
        <ele>4</ele>
        <time>2019-07-14T17:35:36 02:00</time>
      </trkpt>
      <trkpt lat="48.69438" lon="-3.97058">
        <ele>4</ele>
        <time>2019-07-14T17:35:56 02:00</time>
      </trkpt>
      <trkpt lat="48.69423" lon="-3.97034">
        <ele>4</ele>
        <time>2019-07-14T17:36:14 02:00</time>
      </trkpt>
      <trkpt lat="48.69407" lon="-3.9701">
        <ele>4.9</ele>
        <time>2019-07-14T17:36:33 02:00</time>
      </trkpt>
      <trkpt lat="48.69392" lon="-3.96981">
        <ele>4.2</ele>
        <time>2019-07-14T17:36:52 02:00</time>
      </trkpt>
      <trkpt lat="48.69379" lon="-3.96952">
        <ele>3.9</ele>
        <time>2019-07-14T17:37:11 02:00</time>
      </trkpt>
      <trkpt lat="48.69367" lon="-3.96924">
        <ele>3.6</ele>
        <time>2019-07-14T17:37:29 02:00</time>
      </trkpt>
      <trkpt lat="48.69355" lon="-3.96895">
        <ele>3</ele>
        <time>2019-07-14T17:37:47 02:00</time>
      </trkpt>
      <trkpt lat="48.69342" lon="-3.96864">
        <ele>3</ele>
        <time>2019-07-14T17:38:09 02:00</time>
      </trkpt>
      <trkpt lat="48.69332" lon="-3.96832">
        <ele>3.1</ele>
        <time>2019-07-14T17:38:29 02:00</time>
      </trkpt>
      <trkpt lat="48.69321" lon="-3.96802">
        <ele>4.6</ele>
        <time>2019-07-14T17:38:48 02:00</time>
      </trkpt>
      <trkpt lat="48.69313" lon="-3.9677">
        <ele>5.3</ele>
        <time>2019-07-14T17:39:25 02:00</time>
      </trkpt>
      <trkpt lat="48.69294" lon="-3.9675">
        <ele>8</ele>
        <time>2019-07-14T17:40:15 02:00</time>
      </trkpt>
      <trkpt lat="48.69272" lon="-3.96741">
        <ele>7.7</ele>
        <time>2019-07-14T17:40:30 02:00</time>
      </trkpt>
      <trkpt lat="48.6925" lon="-3.96747">
        <ele>7.1</ele>
        <time>2019-07-14T17:40:49 02:00</time>
      </trkpt>
      <trkpt lat="48.69228" lon="-3.96754">
        <ele>6.8</ele>
        <time>2019-07-14T17:41:09 02:00</time>
      </trkpt>
      <trkpt lat="48.69207" lon="-3.96768">
        <ele>6.8</ele>
        <time>2019-07-14T17:41:26 02:00</time>
      </trkpt>
      <trkpt lat="48.69187" lon="-3.96785">
        <ele>6.6</ele>
        <time>2019-07-14T17:41:45 02:00</time>
      </trkpt>
      <trkpt lat="48.69168" lon="-3.96807">
        <ele>6.1</ele>
        <time>2019-07-14T17:42:07 02:00</time>
      </trkpt>
      <trkpt lat="48.69145" lon="-3.96813">
        <ele>5.6</ele>
        <time>2019-07-14T17:42:22 02:00</time>
      </trkpt>
      <trkpt lat="48.69124" lon="-3.96826">
        <ele>5.5</ele>
        <time>2019-07-14T17:42:39 02:00</time>
      </trkpt>
      <trkpt lat="48.69102" lon="-3.9683">
        <ele>5.3</ele>
        <time>2019-07-14T17:42:56 02:00</time>
      </trkpt>
      <trkpt lat="48.69085" lon="-3.96806">
        <ele>5.4</ele>
        <time>2019-07-14T17:43:13 02:00</time>
      </trkpt>
      <trkpt lat="48.69069" lon="-3.96782">
        <ele>5.2</ele>
        <time>2019-07-14T17:43:35 02:00</time>
      </trkpt>
      <trkpt lat="48.69045" lon="-3.96784">
        <ele>5.3</ele>
        <time>2019-07-14T17:44:02 02:00</time>
      </trkpt>
      <trkpt lat="48.69023" lon="-3.96794">
        <ele>5.3</ele>
        <time>2019-07-14T17:44:30 02:00</time>
      </trkpt>
      <trkpt lat="48.69007" lon="-3.96819">
        <ele>5.1</ele>
        <time>2019-07-14T17:44:46 02:00</time>
      </trkpt>
      <trkpt lat="48.68988" lon="-3.96839">
        <ele>5</ele>
        <time>2019-07-14T17:45:04 02:00</time>
      </trkpt>
      <trkpt lat="48.68969" lon="-3.96857">
        <ele>5</ele>
        <time>2019-07-14T17:45:24 02:00</time>
      </trkpt>
      <trkpt lat="48.68947" lon="-3.96868">
        <ele>5</ele>
        <time>2019-07-14T17:45:43 02:00</time>
      </trkpt>
      <trkpt lat="48.68926" lon="-3.96881">
        <ele>5</ele>
        <time>2019-07-14T17:46:01 02:00</time>
      </trkpt>
      <trkpt lat="48.68905" lon="-3.96895">
        <ele>4.8</ele>
        <time>2019-07-14T17:46:19 02:00</time>
      </trkpt>
      <trkpt lat="48.68882" lon="-3.96901">
        <ele>4.7</ele>
        <time>2019-07-14T17:46:40 02:00</time>
      </trkpt>
      <trkpt lat="48.68859" lon="-3.96909">
        <ele>4.4</ele>
        <time>2019-07-14T17:47:00 02:00</time>
      </trkpt>
      <trkpt lat="48.68836" lon="-3.96916">
        <ele>4.1</ele>
        <time>2019-07-14T17:47:18 02:00</time>
      </trkpt>
      <trkpt lat="48.68814" lon="-3.96928">
        <ele>4.3</ele>
        <time>2019-07-14T17:47:37 02:00</time>
      </trkpt>
      <trkpt lat="48.68792" lon="-3.96941">
        <ele>4.6</ele>
        <time>2019-07-14T17:47:58 02:00</time>
      </trkpt>
      <trkpt lat="48.68772" lon="-3.96956">
        <ele>4.7</ele>
        <time>2019-07-14T17:48:15 02:00</time>
      </trkpt>
      <trkpt lat="48.68751" lon="-3.96968">
        <ele>4.8</ele>
        <time>2019-07-14T17:48:37 02:00</time>
      </trkpt>
      <trkpt lat="48.68731" lon="-3.96987">
        <ele>5</ele>
        <time>2019-07-14T17:48:54 02:00</time>
      </trkpt>
      <trkpt lat="48.68709" lon="-3.97001">
        <ele>6.9</ele>
        <time>2019-07-14T17:49:08 02:00</time>
      </trkpt>
      <trkpt lat="48.6869" lon="-3.97019">
        <ele>7.6</ele>
        <time>2019-07-14T17:49:29 02:00</time>
      </trkpt>
      <trkpt lat="48.68669" lon="-3.97033">
        <ele>8.1</ele>
        <time>2019-07-14T17:49:51 02:00</time>
      </trkpt>
      <trkpt lat="48.68648" lon="-3.97045">
        <ele>9.3</ele>
        <time>2019-07-14T17:50:12 02:00</time>
      </trkpt>
      <trkpt lat="48.68624" lon="-3.97048">
        <ele>9</ele>
        <time>2019-07-14T17:50:52 02:00</time>
      </trkpt>
      <trkpt lat="48.68602" lon="-3.97052">
        <ele>8.7</ele>
        <time>2019-07-14T17:51:09 02:00</time>
      </trkpt>
      <trkpt lat="48.68579" lon="-3.97049">
        <ele>7.4</ele>
        <time>2019-07-14T17:51:28 02:00</time>
      </trkpt>
      <trkpt lat="48.68557" lon="-3.97058">
        <ele>7.5</ele>
        <time>2019-07-14T17:51:47 02:00</time>
      </trkpt>
      <trkpt lat="48.68534" lon="-3.97063">
        <ele>7.7</ele>
        <time>2019-07-14T17:52:02 02:00</time>
      </trkpt>
      <trkpt lat="48.68512" lon="-3.9707">
        <ele>8.5</ele>
        <time>2019-07-14T17:52:22 02:00</time>
      </trkpt>
      <trkpt lat="48.68489" lon="-3.97081">
        <ele>9</ele>
        <time>2019-07-14T17:52:41 02:00</time>
      </trkpt>
      <trkpt lat="48.68465" lon="-3.97083">
        <ele>8</ele>
        <time>2019-07-14T17:53:02 02:00</time>
      </trkpt>
      <trkpt lat="48.68443" lon="-3.97074">
        <ele>7.7</ele>
        <time>2019-07-14T17:53:28 02:00</time>
      </trkpt>
      <trkpt lat="48.6842" lon="-3.97066">
        <ele>7.7</ele>
        <time>2019-07-14T17:53:51 02:00</time>
      </trkpt>
      <trkpt lat="48.68397" lon="-3.97064">
        <ele>6.8</ele>
        <time>2019-07-14T17:54:12 02:00</time>
      </trkpt>
      <trkpt lat="48.68374" lon="-3.97066">
        <ele>6</ele>
        <time>2019-07-14T17:54:35 02:00</time>
      </trkpt>
      <trkpt lat="48.68351" lon="-3.97065">
        <ele>5.1</ele>
        <time>2019-07-14T17:54:56 02:00</time>
      </trkpt>
      <trkpt lat="48.68329" lon="-3.97059">
        <ele>4.4</ele>
        <time>2019-07-14T17:55:16 02:00</time>
      </trkpt>
      <trkpt lat="48.68305" lon="-3.97064">
        <ele>4.6</ele>
        <time>2019-07-14T17:55:33 02:00</time>
      </trkpt>
      <trkpt lat="48.68284" lon="-3.97079">
        <ele>5</ele>
        <time>2019-07-14T17:56:01 02:00</time>
      </trkpt>
      <trkpt lat="48.68263" lon="-3.97091">
        <ele>5.9</ele>
        <time>2019-07-14T17:56:29 02:00</time>
      </trkpt>
      <trkpt lat="48.68248" lon="-3.97117">
        <ele>6.7</ele>
        <time>2019-07-14T17:56:50 02:00</time>
      </trkpt>
      <trkpt lat="48.68237" lon="-3.97148">
        <ele>6.9</ele>
        <time>2019-07-14T17:57:05 02:00</time>
      </trkpt>
      <trkpt lat="48.68227" lon="-3.97178">
        <ele>7</ele>
        <time>2019-07-14T17:57:24 02:00</time>
      </trkpt>
      <trkpt lat="48.68214" lon="-3.97207">
        <ele>7</ele>
        <time>2019-07-14T17:57:48 02:00</time>
      </trkpt>
      <trkpt lat="48.68203" lon="-3.97237">
        <ele>7.1</ele>
        <time>2019-07-14T17:58:10 02:00</time>
      </trkpt>
      <trkpt lat="48.68189" lon="-3.97265">
        <ele>7.5</ele>
        <time>2019-07-14T17:58:26 02:00</time>
      </trkpt>
    </trkseg>
  </trk>
</gpx>